<?xml version="1.0" encoding="UTF-8" standalone="no" ?><gpx xmlns="http://www.topografix.com/GPX/1/1" xmlns:gpxx="http://www.garmin.com/xmlschemas/GpxExtensions/v3" xmlns:wptx1="http://www.garmin.com/xmlschemas/WaypointExtension/v1" xmlns:gpxtpx="http://www.garmin.com/xmlschemas/TrackPointExtension/v1" creator="GuideVTT.com" version="1.1" xmlns:xsi="http://www.w3.org/2001/XMLSchema-instance" xsi:schemaLocation="http://www.topografix.com/GPX/1/1 http://www.topografix.com/GPX/1/1/gpx.xsd http://www.garmin.com/xmlschemas/GpxExtensions/v3 http://www8.garmin.com/xmlschemas/GpxExtensionsv3.xsd http://www.garmin.com/xmlschemas/WaypointExtension/v1 http://www8.garmin.com/xmlschemas/WaypointExtensionv1.xsd http://www.garmin.com/xmlschemas/TrackPointExtension/v1 http://www.garmin.com/xmlschemas/TrackPointExtensionv1.xsd">
<metadata><link href="http://www.garmin.com"><text>Garmin International</text></link><time>2013-06-22T15:13:50Z</time></metadata>
<trk><name>abey_track_001c.gpx</name><extensions><gpxx:TrackExtension><gpxx:DisplayColor>Cyan</gpxx:DisplayColor></gpxx:TrackExtension></extensions><trkseg>
<trkpt lat="6.579648" lon="477.0"><ele></ele><time>2014-5-26T17:27:27Z</time></trkpt>
<trkpt lat="6.579794" lon="479.0"><ele></ele><time>2014-5-26T17:27:30Z</time></trkpt>
<trkpt lat="6.579893" lon="479.0"><ele></ele><time>2014-5-26T17:27:33Z</time></trkpt>
<trkpt lat="6.579949" lon="478.0"><ele></ele><time>2014-5-26T17:27:36Z</time></trkpt>
<trkpt lat="6.580173" lon="477.0"><ele></ele><time>2014-5-26T17:27:39Z</time></trkpt>
<trkpt lat="6.580268" lon="477.0"><ele></ele><time>2014-5-26T17:27:42Z</time></trkpt>
<trkpt lat="6.580369" lon="477.0"><ele></ele><time>2014-5-26T17:27:45Z</time></trkpt>
<trkpt lat="6.580397" lon="476.0"><ele></ele><time>2014-5-26T17:27:48Z</time></trkpt>
<trkpt lat="6.580427" lon="476.0"><ele></ele><time>2014-5-26T17:27:51Z</time></trkpt>
<trkpt lat="6.580451" lon="477.0"><ele></ele><time>2014-5-26T17:27:54Z</time></trkpt>
<trkpt lat="6.580402" lon="478.0"><ele></ele><time>2014-5-26T17:27:57Z</time></trkpt>
<trkpt lat="6.580336" lon="479.0"><ele></ele><time>2014-5-26T17:28:0Z</time></trkpt>
<trkpt lat="6.580335" lon="479.0"><ele></ele><time>2014-5-26T17:28:3Z</time></trkpt>
<trkpt lat="6.580414" lon="481.0"><ele></ele><time>2014-5-26T17:28:6Z</time></trkpt>
<trkpt lat="6.580564" lon="481.0"><ele></ele><time>2014-5-26T17:28:9Z</time></trkpt>
<trkpt lat="6.580662" lon="481.0"><ele></ele><time>2014-5-26T17:28:12Z</time></trkpt>
<trkpt lat="6.580706" lon="482.0"><ele></ele><time>2014-5-26T17:28:15Z</time></trkpt>
<trkpt lat="6.580692" lon="482.0"><ele></ele><time>2014-5-26T17:28:18Z</time></trkpt>
<trkpt lat="6.580650" lon="483.0"><ele></ele><time>2014-5-26T17:28:21Z</time></trkpt>
<trkpt lat="6.580620" lon="483.0"><ele></ele><time>2014-5-26T17:28:24Z</time></trkpt>
<trkpt lat="6.580630" lon="482.0"><ele></ele><time>2014-5-26T17:28:27Z</time></trkpt>
<trkpt lat="6.580651" lon="481.0"><ele></ele><time>2014-5-26T17:28:30Z</time></trkpt>
<trkpt lat="6.580670" lon="481.0"><ele></ele><time>2014-5-26T17:28:33Z</time></trkpt>
<trkpt lat="6.580694" lon="481.0"><ele></ele><time>2014-5-26T17:28:36Z</time></trkpt>
<trkpt lat="6.580717" lon="482.0"><ele></ele><time>2014-5-26T17:28:39Z</time></trkpt>
<trkpt lat="6.580743" lon="483.0"><ele></ele><time>2014-5-26T17:28:42Z</time></trkpt>
<trkpt lat="6.580783" lon="483.0"><ele></ele><time>2014-5-26T17:28:45Z</time></trkpt>
<trkpt lat="6.580847" lon="484.0"><ele></ele><time>2014-5-26T17:28:48Z</time></trkpt>
<trkpt lat="6.580917" lon="484.0"><ele></ele><time>2014-5-26T17:28:51Z</time></trkpt>
<trkpt lat="6.581038" lon="484.0"><ele></ele><time>2014-5-26T17:28:54Z</time></trkpt>
<trkpt lat="6.581139" lon="484.0"><ele></ele><time>2014-5-26T17:28:57Z</time></trkpt>
<trkpt lat="6.581252" lon="485.0"><ele></ele><time>2014-5-26T17:29:0Z</time></trkpt>
<trkpt lat="6.581742" lon="487.0"><ele></ele><time>2014-5-26T17:29:3Z</time></trkpt>
<trkpt lat="6.581900" lon="488.0"><ele></ele><time>2014-5-26T17:29:6Z</time></trkpt>
<trkpt lat="6.582061" lon="489.0"><ele></ele><time>2014-5-26T17:29:9Z</time></trkpt>
<trkpt lat="6.582222" lon="489.0"><ele></ele><time>2014-5-26T17:29:12Z</time></trkpt>
<trkpt lat="6.582385" lon="489.0"><ele></ele><time>2014-5-26T17:29:15Z</time></trkpt>
<trkpt lat="6.582548" lon="489.0"><ele></ele><time>2014-5-26T17:29:18Z</time></trkpt>
<trkpt lat="6.582718" lon="488.0"><ele></ele><time>2014-5-26T17:29:21Z</time></trkpt>
<trkpt lat="6.582893" lon="487.0"><ele></ele><time>2014-5-26T17:29:24Z</time></trkpt>
<trkpt lat="6.583069" lon="487.0"><ele></ele><time>2014-5-26T17:29:27Z</time></trkpt>
<trkpt lat="6.583249" lon="486.0"><ele></ele><time>2014-5-26T17:29:30Z</time></trkpt>
<trkpt lat="6.583441" lon="486.0"><ele></ele><time>2014-5-26T17:29:33Z</time></trkpt>
<trkpt lat="6.583651" lon="485.0"><ele></ele><time>2014-5-26T17:29:36Z</time></trkpt>
<trkpt lat="6.583872" lon="484.0"><ele></ele><time>2014-5-26T17:29:39Z</time></trkpt>
<trkpt lat="6.584102" lon="483.0"><ele></ele><time>2014-5-26T17:29:42Z</time></trkpt>
<trkpt lat="6.584369" lon="481.0"><ele></ele><time>2014-5-26T17:29:45Z</time></trkpt>
<trkpt lat="6.584649" lon="479.0"><ele></ele><time>2014-5-26T17:29:48Z</time></trkpt>
<trkpt lat="6.584909" lon="478.0"><ele></ele><time>2014-5-26T17:29:51Z</time></trkpt>
<trkpt lat="6.585154" lon="476.0"><ele></ele><time>2014-5-26T17:29:54Z</time></trkpt>
<trkpt lat="6.585390" lon="475.0"><ele></ele><time>2014-5-26T17:29:57Z</time></trkpt>
<trkpt lat="6.585621" lon="474.0"><ele></ele><time>2014-5-26T17:30:0Z</time></trkpt>
<trkpt lat="6.585826" lon="473.0"><ele></ele><time>2014-5-26T17:30:3Z</time></trkpt>
<trkpt lat="6.586083" lon="473.0"><ele></ele><time>2014-5-26T17:30:6Z</time></trkpt>
<trkpt lat="6.586353" lon="472.0"><ele></ele><time>2014-5-26T17:30:9Z</time></trkpt>
<trkpt lat="6.586634" lon="472.0"><ele></ele><time>2014-5-26T17:30:12Z</time></trkpt>
<trkpt lat="6.586887" lon="471.0"><ele></ele><time>2014-5-26T17:30:15Z</time></trkpt>
<trkpt lat="6.587006" lon="471.0"><ele></ele><time>2014-5-26T17:30:18Z</time></trkpt>
<trkpt lat="6.586933" lon="471.0"><ele></ele><time>2014-5-26T17:30:21Z</time></trkpt>
<trkpt lat="6.586772" lon="470.0"><ele></ele><time>2014-5-26T17:30:24Z</time></trkpt>
<trkpt lat="6.586642" lon="470.0"><ele></ele><time>2014-5-26T17:30:27Z</time></trkpt>
<trkpt lat="6.586512" lon="471.0"><ele></ele><time>2014-5-26T17:30:30Z</time></trkpt>
<trkpt lat="6.586360" lon="472.0"><ele></ele><time>2014-5-26T17:30:33Z</time></trkpt>
<trkpt lat="6.586202" lon="473.0"><ele></ele><time>2014-5-26T17:30:36Z</time></trkpt>
<trkpt lat="6.586040" lon="473.0"><ele></ele><time>2014-5-26T17:30:39Z</time></trkpt>
<trkpt lat="6.585887" lon="474.0"><ele></ele><time>2014-5-26T17:30:42Z</time></trkpt>
<trkpt lat="6.585739" lon="474.0"><ele></ele><time>2014-5-26T17:30:45Z</time></trkpt>
<trkpt lat="6.585586" lon="474.0"><ele></ele><time>2014-5-26T17:30:48Z</time></trkpt>
<trkpt lat="6.585430" lon="475.0"><ele></ele><time>2014-5-26T17:30:51Z</time></trkpt>
<trkpt lat="6.585271" lon="475.0"><ele></ele><time>2014-5-26T17:30:54Z</time></trkpt>
<trkpt lat="6.585114" lon="475.0"><ele></ele><time>2014-5-26T17:30:57Z</time></trkpt>
<trkpt lat="6.584958" lon="475.0"><ele></ele><time>2014-5-26T17:31:0Z</time></trkpt>
<trkpt lat="6.584801" lon="475.0"><ele></ele><time>2014-5-26T17:31:3Z</time></trkpt>
<trkpt lat="6.584640" lon="476.0"><ele></ele><time>2014-5-26T17:31:6Z</time></trkpt>
<trkpt lat="6.584477" lon="476.0"><ele></ele><time>2014-5-26T17:31:9Z</time></trkpt>
<trkpt lat="6.584306" lon="476.0"><ele></ele><time>2014-5-26T17:31:12Z</time></trkpt>
<trkpt lat="6.584130" lon="477.0"><ele></ele><time>2014-5-26T17:31:15Z</time></trkpt>
<trkpt lat="6.583945" lon="477.0"><ele></ele><time>2014-5-26T17:31:18Z</time></trkpt>
<trkpt lat="6.583755" lon="477.0"><ele></ele><time>2014-5-26T17:31:21Z</time></trkpt>
<trkpt lat="6.583569" lon="477.0"><ele></ele><time>2014-5-26T17:31:24Z</time></trkpt>
<trkpt lat="6.583393" lon="478.0"><ele></ele><time>2014-5-26T17:31:27Z</time></trkpt>
<trkpt lat="6.583218" lon="478.0"><ele></ele><time>2014-5-26T17:31:30Z</time></trkpt>
<trkpt lat="6.583038" lon="478.0"><ele></ele><time>2014-5-26T17:31:33Z</time></trkpt>
<trkpt lat="6.582859" lon="478.0"><ele></ele><time>2014-5-26T17:31:36Z</time></trkpt>
<trkpt lat="6.582684" lon="479.0"><ele></ele><time>2014-5-26T17:31:39Z</time></trkpt>
<trkpt lat="6.582521" lon="479.0"><ele></ele><time>2014-5-26T17:31:42Z</time></trkpt>
<trkpt lat="6.582359" lon="480.0"><ele></ele><time>2014-5-26T17:31:45Z</time></trkpt>
<trkpt lat="6.582200" lon="480.0"><ele></ele><time>2014-5-26T17:31:48Z</time></trkpt>
<trkpt lat="6.582032" lon="480.0"><ele></ele><time>2014-5-26T17:31:51Z</time></trkpt>
<trkpt lat="6.581840" lon="481.0"><ele></ele><time>2014-5-26T17:31:54Z</time></trkpt>
<trkpt lat="6.581803" lon="482.0"><ele></ele><time>2014-5-26T17:31:57Z</time></trkpt>
<trkpt lat="6.581825" lon="483.0"><ele></ele><time>2014-5-26T17:32:0Z</time></trkpt>
<trkpt lat="6.581885" lon="483.0"><ele></ele><time>2014-5-26T17:32:3Z</time></trkpt>
<trkpt lat="6.581949" lon="483.0"><ele></ele><time>2014-5-26T17:32:6Z</time></trkpt>
<trkpt lat="6.582013" lon="483.0"><ele></ele><time>2014-5-26T17:32:9Z</time></trkpt>
<trkpt lat="6.582064" lon="483.0"><ele></ele><time>2014-5-26T17:32:12Z</time></trkpt>
<trkpt lat="6.582058" lon="483.0"><ele></ele><time>2014-5-26T17:32:15Z</time></trkpt>
<trkpt lat="6.582018" lon="483.0"><ele></ele><time>2014-5-26T17:32:18Z</time></trkpt>
<trkpt lat="6.581977" lon="484.0"><ele></ele><time>2014-5-26T17:32:21Z</time></trkpt>
<trkpt lat="6.581930" lon="485.0"><ele></ele><time>2014-5-26T17:32:24Z</time></trkpt>
<trkpt lat="6.581878" lon="485.0"><ele></ele><time>2014-5-26T17:32:27Z</time></trkpt>
<trkpt lat="6.581820" lon="485.0"><ele></ele><time>2014-5-26T17:32:30Z</time></trkpt>
<trkpt lat="6.581763" lon="486.0"><ele></ele><time>2014-5-26T17:32:33Z</time></trkpt>
<trkpt lat="6.581698" lon="487.0"><ele></ele><time>2014-5-26T17:32:36Z</time></trkpt>
<trkpt lat="6.581639" lon="487.0"><ele></ele><time>2014-5-26T17:32:39Z</time></trkpt>
<trkpt lat="6.581582" lon="488.0"><ele></ele><time>2014-5-26T17:32:42Z</time></trkpt>
<trkpt lat="6.581516" lon="489.0"><ele></ele><time>2014-5-26T17:32:45Z</time></trkpt>
<trkpt lat="6.581447" lon="489.0"><ele></ele><time>2014-5-26T17:32:48Z</time></trkpt>
<trkpt lat="6.581376" lon="489.0"><ele></ele><time>2014-5-26T17:32:51Z</time></trkpt>
<trkpt lat="6.581288" lon="489.0"><ele></ele><time>2014-5-26T17:32:54Z</time></trkpt>
<trkpt lat="6.581196" lon="490.0"><ele></ele><time>2014-5-26T17:32:57Z</time></trkpt>
<trkpt lat="6.581107" lon="492.0"><ele></ele><time>2014-5-26T17:33:0Z</time></trkpt>
<trkpt lat="6.581108" lon="492.0"><ele></ele><time>2014-5-26T17:33:3Z</time></trkpt>
<trkpt lat="6.581203" lon="492.0"><ele></ele><time>2014-5-26T17:33:6Z</time></trkpt>
<trkpt lat="6.581296" lon="492.0"><ele></ele><time>2014-5-26T17:33:9Z</time></trkpt>
<trkpt lat="6.581369" lon="492.0"><ele></ele><time>2014-5-26T17:33:12Z</time></trkpt>
<trkpt lat="6.581433" lon="492.0"><ele></ele><time>2014-5-26T17:33:15Z</time></trkpt>
<trkpt lat="6.581490" lon="492.0"><ele></ele><time>2014-5-26T17:33:18Z</time></trkpt>
<trkpt lat="6.581529" lon="492.0"><ele></ele><time>2014-5-26T17:33:21Z</time></trkpt>
<trkpt lat="6.581549" lon="493.0"><ele></ele><time>2014-5-26T17:33:24Z</time></trkpt>
<trkpt lat="6.581571" lon="492.0"><ele></ele><time>2014-5-26T17:33:27Z</time></trkpt>
<trkpt lat="6.581600" lon="493.0"><ele></ele><time>2014-5-26T17:33:30Z</time></trkpt>
<trkpt lat="6.581634" lon="494.0"><ele></ele><time>2014-5-26T17:33:33Z</time></trkpt>
<trkpt lat="6.581671" lon="494.0"><ele></ele><time>2014-5-26T17:33:36Z</time></trkpt>
<trkpt lat="6.581702" lon="494.0"><ele></ele><time>2014-5-26T17:33:39Z</time></trkpt>
<trkpt lat="6.581731" lon="494.0"><ele></ele><time>2014-5-26T17:33:42Z</time></trkpt>
<trkpt lat="6.581766" lon="493.0"><ele></ele><time>2014-5-26T17:33:45Z</time></trkpt>
<trkpt lat="6.581802" lon="492.0"><ele></ele><time>2014-5-26T17:33:48Z</time></trkpt>
<trkpt lat="6.581826" lon="492.0"><ele></ele><time>2014-5-26T17:33:51Z</time></trkpt>
<trkpt lat="6.581848" lon="491.0"><ele></ele><time>2014-5-26T17:33:54Z</time></trkpt>
<trkpt lat="6.581866" lon="492.0"><ele></ele><time>2014-5-26T17:33:57Z</time></trkpt>
<trkpt lat="6.581909" lon="492.0"><ele></ele><time>2014-5-26T17:34:0Z</time></trkpt>
<trkpt lat="6.581995" lon="491.0"><ele></ele><time>2014-5-26T17:34:3Z</time></trkpt>
<trkpt lat="6.582056" lon="490.0"><ele></ele><time>2014-5-26T17:34:6Z</time></trkpt>
<trkpt lat="6.582071" lon="490.0"><ele></ele><time>2014-5-26T17:34:9Z</time></trkpt>
<trkpt lat="6.582063" lon="491.0"><ele></ele><time>2014-5-26T17:34:12Z</time></trkpt>
<trkpt lat="6.582014" lon="490.0"><ele></ele><time>2014-5-26T17:34:15Z</time></trkpt>
<trkpt lat="6.581968" lon="491.0"><ele></ele><time>2014-5-26T17:34:18Z</time></trkpt>
<trkpt lat="6.581923" lon="492.0"><ele></ele><time>2014-5-26T17:34:21Z</time></trkpt>
<trkpt lat="6.581863" lon="492.0"><ele></ele><time>2014-5-26T17:34:24Z</time></trkpt>
<trkpt lat="6.581786" lon="491.0"><ele></ele><time>2014-5-26T17:34:27Z</time></trkpt>
<trkpt lat="6.581725" lon="491.0"><ele></ele><time>2014-5-26T17:34:30Z</time></trkpt>
<trkpt lat="6.581725" lon="491.0"><ele></ele><time>2014-5-26T17:34:33Z</time></trkpt>
<trkpt lat="6.581609" lon="492.0"><ele></ele><time>2014-5-26T17:34:36Z</time></trkpt>
<trkpt lat="6.581572" lon="492.0"><ele></ele><time>2014-5-26T17:34:39Z</time></trkpt>
<trkpt lat="6.581540" lon="492.0"><ele></ele><time>2014-5-26T17:34:42Z</time></trkpt>
<trkpt lat="6.581515" lon="492.0"><ele></ele><time>2014-5-26T17:34:45Z</time></trkpt>
<trkpt lat="6.581495" lon="493.0"><ele></ele><time>2014-5-26T17:34:48Z</time></trkpt>
<trkpt lat="6.581472" lon="494.0"><ele></ele><time>2014-5-26T17:34:51Z</time></trkpt>
<trkpt lat="6.581452" lon="495.0"><ele></ele><time>2014-5-26T17:34:54Z</time></trkpt>
<trkpt lat="6.581430" lon="495.0"><ele></ele><time>2014-5-26T17:34:57Z</time></trkpt>
<trkpt lat="6.581422" lon="496.0"><ele></ele><time>2014-5-26T17:35:0Z</time></trkpt>
<trkpt lat="6.581423" lon="496.0"><ele></ele><time>2014-5-26T17:35:3Z</time></trkpt>
<trkpt lat="6.581422" lon="497.0"><ele></ele><time>2014-5-26T17:35:6Z</time></trkpt>
<trkpt lat="6.581414" lon="498.0"><ele></ele><time>2014-5-26T17:35:9Z</time></trkpt>
<trkpt lat="6.581381" lon="498.0"><ele></ele><time>2014-5-26T17:35:12Z</time></trkpt>
<trkpt lat="6.581319" lon="499.0"><ele></ele><time>2014-5-26T17:35:15Z</time></trkpt>
<trkpt lat="6.581276" lon="499.0"><ele></ele><time>2014-5-26T17:35:18Z</time></trkpt>
<trkpt lat="6.581273" lon="499.0"><ele></ele><time>2014-5-26T17:35:21Z</time></trkpt>
<trkpt lat="6.581294" lon="500.0"><ele></ele><time>2014-5-26T17:35:24Z</time></trkpt>
<trkpt lat="6.581316" lon="500.0"><ele></ele><time>2014-5-26T17:35:27Z</time></trkpt>
<trkpt lat="6.581333" lon="500.0"><ele></ele><time>2014-5-26T17:35:30Z</time></trkpt>
<trkpt lat="6.581290" lon="499.0"><ele></ele><time>2014-5-26T17:35:33Z</time></trkpt>
<trkpt lat="6.581290" lon="499.0"><ele></ele><time>2014-5-26T17:35:36Z</time></trkpt>
<trkpt lat="6.581387" lon="501.0"><ele></ele><time>2014-5-26T17:35:39Z</time></trkpt>
<trkpt lat="6.581435" lon="501.0"><ele></ele><time>2014-5-26T17:35:42Z</time></trkpt>
<trkpt lat="6.581479" lon="501.0"><ele></ele><time>2014-5-26T17:35:45Z</time></trkpt>
<trkpt lat="6.581530" lon="501.0"><ele></ele><time>2014-5-26T17:35:48Z</time></trkpt>
<trkpt lat="6.581552" lon="501.0"><ele></ele><time>2014-5-26T17:35:51Z</time></trkpt>
<trkpt lat="6.581792" lon="504.0"><ele></ele><time>2014-5-26T17:35:54Z</time></trkpt>
<trkpt lat="6.581815" lon="506.0"><ele></ele><time>2014-5-26T17:35:57Z</time></trkpt>
<trkpt lat="6.581817" lon="507.0"><ele></ele><time>2014-5-26T17:36:0Z</time></trkpt>
<trkpt lat="6.581797" lon="508.0"><ele></ele><time>2014-5-26T17:36:3Z</time></trkpt>
<trkpt lat="6.581776" lon="508.0"><ele></ele><time>2014-5-26T17:36:6Z</time></trkpt>
<trkpt lat="6.581744" lon="509.0"><ele></ele><time>2014-5-26T17:36:9Z</time></trkpt>
<trkpt lat="6.581710" lon="509.0"><ele></ele><time>2014-5-26T17:36:12Z</time></trkpt>
<trkpt lat="6.581671" lon="510.0"><ele></ele><time>2014-5-26T17:36:15Z</time></trkpt>
<trkpt lat="6.581622" lon="510.0"><ele></ele><time>2014-5-26T17:36:18Z</time></trkpt>
<trkpt lat="6.581582" lon="511.0"><ele></ele><time>2014-5-26T17:36:21Z</time></trkpt>
<trkpt lat="6.581551" lon="511.0"><ele></ele><time>2014-5-26T17:36:24Z</time></trkpt>
<trkpt lat="6.581526" lon="511.0"><ele></ele><time>2014-5-26T17:36:27Z</time></trkpt>
<trkpt lat="6.581508" lon="511.0"><ele></ele><time>2014-5-26T17:36:30Z</time></trkpt>
<trkpt lat="6.581489" lon="511.0"><ele></ele><time>2014-5-26T17:36:33Z</time></trkpt>
<trkpt lat="6.581469" lon="512.0"><ele></ele><time>2014-5-26T17:36:36Z</time></trkpt>
<trkpt lat="6.581450" lon="513.0"><ele></ele><time>2014-5-26T17:36:39Z</time></trkpt>
<trkpt lat="6.581429" lon="513.0"><ele></ele><time>2014-5-26T17:36:42Z</time></trkpt>
<trkpt lat="6.581422" lon="513.0"><ele></ele><time>2014-5-26T17:36:45Z</time></trkpt>
<trkpt lat="6.581422" lon="513.0"><ele></ele><time>2014-5-26T17:36:48Z</time></trkpt>
<trkpt lat="6.581420" lon="513.0"><ele></ele><time>2014-5-26T17:36:51Z</time></trkpt>
<trkpt lat="6.581411" lon="513.0"><ele></ele><time>2014-5-26T17:36:54Z</time></trkpt>
<trkpt lat="6.581396" lon="513.0"><ele></ele><time>2014-5-26T17:36:57Z</time></trkpt>
<trkpt lat="6.581377" lon="513.0"><ele></ele><time>2014-5-26T17:37:0Z</time></trkpt>
<trkpt lat="6.581356" lon="512.0"><ele></ele><time>2014-5-26T17:37:3Z</time></trkpt>
<trkpt lat="6.581327" lon="512.0"><ele></ele><time>2014-5-26T17:37:6Z</time></trkpt>
<trkpt lat="6.581290" lon="512.0"><ele></ele><time>2014-5-26T17:37:9Z</time></trkpt>
<trkpt lat="6.581254" lon="513.0"><ele></ele><time>2014-5-26T17:37:12Z</time></trkpt>
<trkpt lat="6.581212" lon="513.0"><ele></ele><time>2014-5-26T17:37:15Z</time></trkpt>
<trkpt lat="6.581172" lon="513.0"><ele></ele><time>2014-5-26T17:37:18Z</time></trkpt>
<trkpt lat="6.581136" lon="513.0"><ele></ele><time>2014-5-26T17:37:21Z</time></trkpt>
<trkpt lat="6.581100" lon="513.0"><ele></ele><time>2014-5-26T17:37:24Z</time></trkpt>
<trkpt lat="6.581059" lon="512.0"><ele></ele><time>2014-5-26T17:37:27Z</time></trkpt>
<trkpt lat="6.581015" lon="513.0"><ele></ele><time>2014-5-26T17:37:30Z</time></trkpt>
<trkpt lat="6.580972" lon="513.0"><ele></ele><time>2014-5-26T17:37:33Z</time></trkpt>
<trkpt lat="6.580928" lon="513.0"><ele></ele><time>2014-5-26T17:37:36Z</time></trkpt>
<trkpt lat="6.580882" lon="512.0"><ele></ele><time>2014-5-26T17:37:39Z</time></trkpt>
<trkpt lat="6.580854" lon="513.0"><ele></ele><time>2014-5-26T17:37:42Z</time></trkpt>
<trkpt lat="6.580854" lon="512.0"><ele></ele><time>2014-5-26T17:37:45Z</time></trkpt>
<trkpt lat="6.580890" lon="512.0"><ele></ele><time>2014-5-26T17:37:48Z</time></trkpt>
<trkpt lat="6.580932" lon="512.0"><ele></ele><time>2014-5-26T17:37:51Z</time></trkpt>
<trkpt lat="6.580974" lon="512.0"><ele></ele><time>2014-5-26T17:37:54Z</time></trkpt>
<trkpt lat="6.581019" lon="511.0"><ele></ele><time>2014-5-26T17:37:57Z</time></trkpt>
<trkpt lat="6.581063" lon="512.0"><ele></ele><time>2014-5-26T17:38:0Z</time></trkpt>
<trkpt lat="6.581114" lon="512.0"><ele></ele><time>2014-5-26T17:38:3Z</time></trkpt>
<trkpt lat="6.581120" lon="511.0"><ele></ele><time>2014-5-26T17:38:6Z</time></trkpt>
<trkpt lat="6.581017" lon="511.0"><ele></ele><time>2014-5-26T17:38:9Z</time></trkpt>
<trkpt lat="6.580925" lon="511.0"><ele></ele><time>2014-5-26T17:38:12Z</time></trkpt>
<trkpt lat="6.580829" lon="512.0"><ele></ele><time>2014-5-26T17:38:15Z</time></trkpt>
<trkpt lat="6.580784" lon="512.0"><ele></ele><time>2014-5-26T17:38:18Z</time></trkpt>
<trkpt lat="6.580838" lon="511.0"><ele></ele><time>2014-5-26T17:38:21Z</time></trkpt>
<trkpt lat="6.580943" lon="512.0"><ele></ele><time>2014-5-26T17:38:24Z</time></trkpt>
<trkpt lat="6.580993" lon="512.0"><ele></ele><time>2014-5-26T17:38:27Z</time></trkpt>
<trkpt lat="6.580968" lon="512.0"><ele></ele><time>2014-5-26T17:38:30Z</time></trkpt>
<trkpt lat="6.580881" lon="513.0"><ele></ele><time>2014-5-26T17:38:33Z</time></trkpt>
<trkpt lat="6.580775" lon="514.0"><ele></ele><time>2014-5-26T17:38:36Z</time></trkpt>
<trkpt lat="6.580664" lon="514.0"><ele></ele><time>2014-5-26T17:38:39Z</time></trkpt>
<trkpt lat="6.580555" lon="514.0"><ele></ele><time>2014-5-26T17:38:42Z</time></trkpt>
<trkpt lat="6.580451" lon="514.0"><ele></ele><time>2014-5-26T17:38:45Z</time></trkpt>
<trkpt lat="6.580353" lon="514.0"><ele></ele><time>2014-5-26T17:38:48Z</time></trkpt>
<trkpt lat="6.580266" lon="514.0"><ele></ele><time>2014-5-26T17:38:51Z</time></trkpt>
<trkpt lat="6.580184" lon="515.0"><ele></ele><time>2014-5-26T17:38:54Z</time></trkpt>
<trkpt lat="6.580113" lon="515.0"><ele></ele><time>2014-5-26T17:38:57Z</time></trkpt>
<trkpt lat="6.580042" lon="516.0"><ele></ele><time>2014-5-26T17:39:0Z</time></trkpt>
<trkpt lat="6.579966" lon="516.0"><ele></ele><time>2014-5-26T17:39:3Z</time></trkpt>
<trkpt lat="6.579904" lon="516.0"><ele></ele><time>2014-5-26T17:39:6Z</time></trkpt>
<trkpt lat="6.579843" lon="517.0"><ele></ele><time>2014-5-26T17:39:9Z</time></trkpt>
<trkpt lat="6.579787" lon="516.0"><ele></ele><time>2014-5-26T17:39:12Z</time></trkpt>
<trkpt lat="6.579732" lon="516.0"><ele></ele><time>2014-5-26T17:39:15Z</time></trkpt>
<trkpt lat="6.579673" lon="516.0"><ele></ele><time>2014-5-26T17:39:18Z</time></trkpt>
<trkpt lat="6.579617" lon="515.0"><ele></ele><time>2014-5-26T17:39:21Z</time></trkpt>
<trkpt lat="6.579562" lon="516.0"><ele></ele><time>2014-5-26T17:39:24Z</time></trkpt>
<trkpt lat="6.579507" lon="516.0"><ele></ele><time>2014-5-26T17:39:27Z</time></trkpt>
<trkpt lat="6.579453" lon="516.0"><ele></ele><time>2014-5-26T17:39:30Z</time></trkpt>
<trkpt lat="6.579406" lon="516.0"><ele></ele><time>2014-5-26T17:39:33Z</time></trkpt>
<trkpt lat="6.579366" lon="516.0"><ele></ele><time>2014-5-26T17:39:36Z</time></trkpt>
<trkpt lat="6.579327" lon="516.0"><ele></ele><time>2014-5-26T17:39:39Z</time></trkpt>
<trkpt lat="6.579279" lon="516.0"><ele></ele><time>2014-5-26T17:39:42Z</time></trkpt>
<trkpt lat="6.579223" lon="516.0"><ele></ele><time>2014-5-26T17:39:45Z</time></trkpt>
<trkpt lat="6.579160" lon="516.0"><ele></ele><time>2014-5-26T17:39:48Z</time></trkpt>
<trkpt lat="6.579095" lon="516.0"><ele></ele><time>2014-5-26T17:39:51Z</time></trkpt>
<trkpt lat="6.579042" lon="516.0"><ele></ele><time>2014-5-26T17:39:54Z</time></trkpt>
<trkpt lat="6.578994" lon="516.0"><ele></ele><time>2014-5-26T17:39:57Z</time></trkpt>
<trkpt lat="6.578951" lon="516.0"><ele></ele><time>2014-5-26T17:40:0Z</time></trkpt>
<trkpt lat="6.578921" lon="516.0"><ele></ele><time>2014-5-26T17:40:3Z</time></trkpt>
<trkpt lat="6.578887" lon="516.0"><ele></ele><time>2014-5-26T17:40:6Z</time></trkpt>
<trkpt lat="6.578854" lon="516.0"><ele></ele><time>2014-5-26T17:40:9Z</time></trkpt>
<trkpt lat="6.578836" lon="516.0"><ele></ele><time>2014-5-26T17:40:12Z</time></trkpt>
<trkpt lat="6.578945" lon="516.0"><ele></ele><time>2014-5-26T17:40:15Z</time></trkpt>
<trkpt lat="6.579051" lon="516.0"><ele></ele><time>2014-5-26T17:40:18Z</time></trkpt>
<trkpt lat="6.579181" lon="514.0"><ele></ele><time>2014-5-26T17:40:21Z</time></trkpt>
<trkpt lat="6.579306" lon="514.0"><ele></ele><time>2014-5-26T17:40:24Z</time></trkpt>
<trkpt lat="6.579424" lon="513.0"><ele></ele><time>2014-5-26T17:40:27Z</time></trkpt>
<trkpt lat="6.579537" lon="513.0"><ele></ele><time>2014-5-26T17:40:30Z</time></trkpt>
<trkpt lat="6.579637" lon="513.0"><ele></ele><time>2014-5-26T17:40:33Z</time></trkpt>
<trkpt lat="6.579718" lon="513.0"><ele></ele><time>2014-5-26T17:40:36Z</time></trkpt>
<trkpt lat="6.579785" lon="513.0"><ele></ele><time>2014-5-26T17:40:39Z</time></trkpt>
<trkpt lat="6.579831" lon="513.0"><ele></ele><time>2014-5-26T17:40:42Z</time></trkpt>
<trkpt lat="6.579867" lon="513.0"><ele></ele><time>2014-5-26T17:40:45Z</time></trkpt>
<trkpt lat="6.579908" lon="514.0"><ele></ele><time>2014-5-26T17:40:48Z</time></trkpt>
<trkpt lat="6.579951" lon="514.0"><ele></ele><time>2014-5-26T17:40:51Z</time></trkpt>
<trkpt lat="6.579989" lon="514.0"><ele></ele><time>2014-5-26T17:40:54Z</time></trkpt>
<trkpt lat="6.580021" lon="514.0"><ele></ele><time>2014-5-26T17:40:57Z</time></trkpt>
<trkpt lat="6.580048" lon="514.0"><ele></ele><time>2014-5-26T17:41:0Z</time></trkpt>
<trkpt lat="6.580073" lon="514.0"><ele></ele><time>2014-5-26T17:41:3Z</time></trkpt>
<trkpt lat="6.580098" lon="515.0"><ele></ele><time>2014-5-26T17:41:6Z</time></trkpt>
<trkpt lat="6.580124" lon="517.0"><ele></ele><time>2014-5-26T17:41:9Z</time></trkpt>
<trkpt lat="6.580154" lon="518.0"><ele></ele><time>2014-5-26T17:41:12Z</time></trkpt>
<trkpt lat="6.580182" lon="519.0"><ele></ele><time>2014-5-26T17:41:15Z</time></trkpt>
<trkpt lat="6.580210" lon="519.0"><ele></ele><time>2014-5-26T17:41:18Z</time></trkpt>
<trkpt lat="6.580238" lon="520.0"><ele></ele><time>2014-5-26T17:41:21Z</time></trkpt>
<trkpt lat="6.580267" lon="521.0"><ele></ele><time>2014-5-26T17:41:24Z</time></trkpt>
<trkpt lat="6.580297" lon="522.0"><ele></ele><time>2014-5-26T17:41:27Z</time></trkpt>
<trkpt lat="6.580328" lon="523.0"><ele></ele><time>2014-5-26T17:41:30Z</time></trkpt>
<trkpt lat="6.580363" lon="523.0"><ele></ele><time>2014-5-26T17:41:33Z</time></trkpt>
<trkpt lat="6.580399" lon="524.0"><ele></ele><time>2014-5-26T17:41:36Z</time></trkpt>
<trkpt lat="6.580436" lon="524.0"><ele></ele><time>2014-5-26T17:41:39Z</time></trkpt>
<trkpt lat="6.580469" lon="525.0"><ele></ele><time>2014-5-26T17:41:42Z</time></trkpt>
<trkpt lat="6.580501" lon="526.0"><ele></ele><time>2014-5-26T17:41:45Z</time></trkpt>
<trkpt lat="6.580536" lon="526.0"><ele></ele><time>2014-5-26T17:41:48Z</time></trkpt>
<trkpt lat="6.580574" lon="526.0"><ele></ele><time>2014-5-26T17:41:51Z</time></trkpt>
<trkpt lat="6.580625" lon="527.0"><ele></ele><time>2014-5-26T17:41:54Z</time></trkpt>
<trkpt lat="6.580689" lon="527.0"><ele></ele><time>2014-5-26T17:41:57Z</time></trkpt>
<trkpt lat="6.580757" lon="528.0"><ele></ele><time>2014-5-26T17:42:0Z</time></trkpt>
<trkpt lat="6.580835" lon="528.0"><ele></ele><time>2014-5-26T17:42:3Z</time></trkpt>
<trkpt lat="6.580886" lon="529.0"><ele></ele><time>2014-5-26T17:42:6Z</time></trkpt>
<trkpt lat="6.580937" lon="529.0"><ele></ele><time>2014-5-26T17:42:9Z</time></trkpt>
<trkpt lat="6.581001" lon="529.0"><ele></ele><time>2014-5-26T17:42:12Z</time></trkpt>
<trkpt lat="6.581132" lon="529.0"><ele></ele><time>2014-5-26T17:42:15Z</time></trkpt>
<trkpt lat="6.581220" lon="529.0"><ele></ele><time>2014-5-26T17:42:18Z</time></trkpt>
<trkpt lat="6.581315" lon="529.0"><ele></ele><time>2014-5-26T17:42:21Z</time></trkpt>
<trkpt lat="6.581442" lon="530.0"><ele></ele><time>2014-5-26T17:42:24Z</time></trkpt>
<trkpt lat="6.581629" lon="530.0"><ele></ele><time>2014-5-26T17:42:27Z</time></trkpt>
<trkpt lat="6.581812" lon="530.0"><ele></ele><time>2014-5-26T17:42:30Z</time></trkpt>
<trkpt lat="6.582089" lon="530.0"><ele></ele><time>2014-5-26T17:42:33Z</time></trkpt>
<trkpt lat="6.582294" lon="530.0"><ele></ele><time>2014-5-26T17:42:36Z</time></trkpt>
<trkpt lat="6.582493" lon="530.0"><ele></ele><time>2014-5-26T17:42:39Z</time></trkpt>
<trkpt lat="6.582685" lon="530.0"><ele></ele><time>2014-5-26T17:42:42Z</time></trkpt>
<trkpt lat="6.582867" lon="529.0"><ele></ele><time>2014-5-26T17:42:45Z</time></trkpt>
<trkpt lat="6.582999" lon="528.0"><ele></ele><time>2014-5-26T17:42:48Z</time></trkpt>
<trkpt lat="6.583104" lon="528.0"><ele></ele><time>2014-5-26T17:42:51Z</time></trkpt>
<trkpt lat="6.583167" lon="528.0"><ele></ele><time>2014-5-26T17:42:54Z</time></trkpt>
<trkpt lat="6.583237" lon="527.0"><ele></ele><time>2014-5-26T17:42:57Z</time></trkpt>
<trkpt lat="6.583307" lon="527.0"><ele></ele><time>2014-5-26T17:43:0Z</time></trkpt>
<trkpt lat="6.583323" lon="527.0"><ele></ele><time>2014-5-26T17:43:3Z</time></trkpt>
<trkpt lat="6.583194" lon="525.0"><ele></ele><time>2014-5-26T17:43:6Z</time></trkpt>
<trkpt lat="6.583133" lon="525.0"><ele></ele><time>2014-5-26T17:43:9Z</time></trkpt>
<trkpt lat="6.583070" lon="524.0"><ele></ele><time>2014-5-26T17:43:12Z</time></trkpt>
<trkpt lat="6.582991" lon="523.0"><ele></ele><time>2014-5-26T17:43:15Z</time></trkpt>
<trkpt lat="6.582906" lon="523.0"><ele></ele><time>2014-5-26T17:43:18Z</time></trkpt>
<trkpt lat="6.582791" lon="523.0"><ele></ele><time>2014-5-26T17:43:21Z</time></trkpt>
<trkpt lat="6.582668" lon="523.0"><ele></ele><time>2014-5-26T17:43:24Z</time></trkpt>
<trkpt lat="6.582551" lon="522.0"><ele></ele><time>2014-5-26T17:43:27Z</time></trkpt>
<trkpt lat="6.582517" lon="522.0"><ele></ele><time>2014-5-26T17:43:30Z</time></trkpt>
<trkpt lat="6.582588" lon="523.0"><ele></ele><time>2014-5-26T17:43:33Z</time></trkpt>
<trkpt lat="6.582749" lon="523.0"><ele></ele><time>2014-5-26T17:43:36Z</time></trkpt>
<trkpt lat="6.582870" lon="523.0"><ele></ele><time>2014-5-26T17:43:39Z</time></trkpt>
<trkpt lat="6.582973" lon="522.0"><ele></ele><time>2014-5-26T17:43:42Z</time></trkpt>
<trkpt lat="6.583092" lon="522.0"><ele></ele><time>2014-5-26T17:43:45Z</time></trkpt>
<trkpt lat="6.583206" lon="522.0"><ele></ele><time>2014-5-26T17:43:48Z</time></trkpt>
<trkpt lat="6.583302" lon="521.0"><ele></ele><time>2014-5-26T17:43:51Z</time></trkpt>
<trkpt lat="6.583395" lon="519.0"><ele></ele><time>2014-5-26T17:43:54Z</time></trkpt>
<trkpt lat="6.583503" lon="519.0"><ele></ele><time>2014-5-26T17:43:57Z</time></trkpt>
<trkpt lat="6.583635" lon="519.0"><ele></ele><time>2014-5-26T17:44:0Z</time></trkpt>
<trkpt lat="6.583800" lon="518.0"><ele></ele><time>2014-5-26T17:44:3Z</time></trkpt>
<trkpt lat="6.583951" lon="517.0"><ele></ele><time>2014-5-26T17:44:6Z</time></trkpt>
<trkpt lat="6.584081" lon="516.0"><ele></ele><time>2014-5-26T17:44:9Z</time></trkpt>
<trkpt lat="6.584147" lon="516.0"><ele></ele><time>2014-5-26T17:44:12Z</time></trkpt>
<trkpt lat="6.584186" lon="517.0"><ele></ele><time>2014-5-26T17:44:15Z</time></trkpt>
<trkpt lat="6.584245" lon="517.0"><ele></ele><time>2014-5-26T17:44:18Z</time></trkpt>
<trkpt lat="6.584238" lon="518.0"><ele></ele><time>2014-5-26T17:44:21Z</time></trkpt>
<trkpt lat="6.584214" lon="519.0"><ele></ele><time>2014-5-26T17:44:24Z</time></trkpt>
<trkpt lat="6.584216" lon="520.0"><ele></ele><time>2014-5-26T17:44:27Z</time></trkpt>
<trkpt lat="6.584249" lon="521.0"><ele></ele><time>2014-5-26T17:44:30Z</time></trkpt>
<trkpt lat="6.584301" lon="521.0"><ele></ele><time>2014-5-26T17:44:33Z</time></trkpt>
<trkpt lat="6.584357" lon="522.0"><ele></ele><time>2014-5-26T17:44:36Z</time></trkpt>
<trkpt lat="6.584357" lon="522.0"><ele></ele><time>2014-5-26T17:44:39Z</time></trkpt>
<trkpt lat="6.584466" lon="519.0"><ele></ele><time>2014-5-26T17:44:42Z</time></trkpt>
<trkpt lat="6.584423" lon="521.0"><ele></ele><time>2014-5-26T17:44:45Z</time></trkpt>
<trkpt lat="6.584381" lon="522.0"><ele></ele><time>2014-5-26T17:44:48Z</time></trkpt>
<trkpt lat="6.584355" lon="522.0"><ele></ele><time>2014-5-26T17:44:51Z</time></trkpt>
<trkpt lat="6.584268" lon="527.0"><ele></ele><time>2014-5-26T17:44:54Z</time></trkpt>
<trkpt lat="6.584175" lon="528.0"><ele></ele><time>2014-5-26T17:44:57Z</time></trkpt>
<trkpt lat="6.584112" lon="528.0"><ele></ele><time>2014-5-26T17:45:0Z</time></trkpt>
<trkpt lat="6.584030" lon="528.0"><ele></ele><time>2014-5-26T17:45:3Z</time></trkpt>
<trkpt lat="6.583920" lon="529.0"><ele></ele><time>2014-5-26T17:45:6Z</time></trkpt>
<trkpt lat="6.583835" lon="529.0"><ele></ele><time>2014-5-26T17:45:9Z</time></trkpt>
<trkpt lat="6.583645" lon="529.0"><ele></ele><time>2014-5-26T17:45:12Z</time></trkpt>
<trkpt lat="6.583643" lon="529.0"><ele></ele><time>2014-5-26T17:45:15Z</time></trkpt>
<trkpt lat="6.583587" lon="533.0"><ele></ele><time>2014-5-26T17:45:18Z</time></trkpt>
<trkpt lat="6.583508" lon="533.0"><ele></ele><time>2014-5-26T17:45:21Z</time></trkpt>
<trkpt lat="6.583363" lon="535.0"><ele></ele><time>2014-5-26T17:45:24Z</time></trkpt>
<trkpt lat="6.583240" lon="535.0"><ele></ele><time>2014-5-26T17:45:27Z</time></trkpt>
<trkpt lat="6.583193" lon="535.0"><ele></ele><time>2014-5-26T17:45:30Z</time></trkpt>
<trkpt lat="6.583085" lon="537.0"><ele></ele><time>2014-5-26T17:45:33Z</time></trkpt>
<trkpt lat="6.582999" lon="538.0"><ele></ele><time>2014-5-26T17:45:36Z</time></trkpt>
<trkpt lat="6.582970" lon="539.0"><ele></ele><time>2014-5-26T17:45:39Z</time></trkpt>
<trkpt lat="6.582908" lon="539.0"><ele></ele><time>2014-5-26T17:45:42Z</time></trkpt>
<trkpt lat="6.582869" lon="540.0"><ele></ele><time>2014-5-26T17:45:45Z</time></trkpt>
<trkpt lat="6.582825" lon="540.0"><ele></ele><time>2014-5-26T17:45:48Z</time></trkpt>
<trkpt lat="6.582783" lon="541.0"><ele></ele><time>2014-5-26T17:45:51Z</time></trkpt>
<trkpt lat="6.582741" lon="541.0"><ele></ele><time>2014-5-26T17:45:54Z</time></trkpt>
<trkpt lat="6.582696" lon="541.0"><ele></ele><time>2014-5-26T17:45:57Z</time></trkpt>
<trkpt lat="6.582647" lon="541.0"><ele></ele><time>2014-5-26T17:46:0Z</time></trkpt>
<trkpt lat="6.582594" lon="541.0"><ele></ele><time>2014-5-26T17:46:3Z</time></trkpt>
<trkpt lat="6.582534" lon="541.0"><ele></ele><time>2014-5-26T17:46:6Z</time></trkpt>
<trkpt lat="6.582464" lon="542.0"><ele></ele><time>2014-5-26T17:46:9Z</time></trkpt>
<trkpt lat="6.582383" lon="542.0"><ele></ele><time>2014-5-26T17:46:12Z</time></trkpt>
<trkpt lat="6.582330" lon="543.0"><ele></ele><time>2014-5-26T17:46:15Z</time></trkpt>
<trkpt lat="6.582255" lon="542.0"><ele></ele><time>2014-5-26T17:46:18Z</time></trkpt>
<trkpt lat="6.582177" lon="542.0"><ele></ele><time>2014-5-26T17:46:21Z</time></trkpt>
<trkpt lat="6.582123" lon="542.0"><ele></ele><time>2014-5-26T17:46:24Z</time></trkpt>
<trkpt lat="6.582049" lon="542.0"><ele></ele><time>2014-5-26T17:46:27Z</time></trkpt>
<trkpt lat="6.581972" lon="541.0"><ele></ele><time>2014-5-26T17:46:30Z</time></trkpt>
<trkpt lat="6.581897" lon="541.0"><ele></ele><time>2014-5-26T17:46:33Z</time></trkpt>
<trkpt lat="6.581817" lon="541.0"><ele></ele><time>2014-5-26T17:46:36Z</time></trkpt>
<trkpt lat="6.581742" lon="542.0"><ele></ele><time>2014-5-26T17:46:39Z</time></trkpt>
<trkpt lat="6.581660" lon="541.0"><ele></ele><time>2014-5-26T17:46:42Z</time></trkpt>
<trkpt lat="6.581582" lon="540.0"><ele></ele><time>2014-5-26T17:46:45Z</time></trkpt>
<trkpt lat="6.581506" lon="540.0"><ele></ele><time>2014-5-26T17:46:48Z</time></trkpt>
<trkpt lat="6.581439" lon="539.0"><ele></ele><time>2014-5-26T17:46:51Z</time></trkpt>
<trkpt lat="6.581392" lon="538.0"><ele></ele><time>2014-5-26T17:46:54Z</time></trkpt>
<trkpt lat="6.581367" lon="538.0"><ele></ele><time>2014-5-26T17:46:57Z</time></trkpt>
<trkpt lat="6.581352" lon="539.0"><ele></ele><time>2014-5-26T17:47:0Z</time></trkpt>
<trkpt lat="6.581374" lon="538.0"><ele></ele><time>2014-5-26T17:47:3Z</time></trkpt>
<trkpt lat="6.581419" lon="537.0"><ele></ele><time>2014-5-26T17:47:6Z</time></trkpt>
<trkpt lat="6.581477" lon="536.0"><ele></ele><time>2014-5-26T17:47:9Z</time></trkpt>
<trkpt lat="6.581564" lon="536.0"><ele></ele><time>2014-5-26T17:47:12Z</time></trkpt>
<trkpt lat="6.581660" lon="535.0"><ele></ele><time>2014-5-26T17:47:15Z</time></trkpt>
<trkpt lat="6.581735" lon="536.0"><ele></ele><time>2014-5-26T17:47:18Z</time></trkpt>
<trkpt lat="6.581801" lon="536.0"><ele></ele><time>2014-5-26T17:47:21Z</time></trkpt>
<trkpt lat="6.581856" lon="536.0"><ele></ele><time>2014-5-26T17:47:24Z</time></trkpt>
<trkpt lat="6.581904" lon="536.0"><ele></ele><time>2014-5-26T17:47:27Z</time></trkpt>
<trkpt lat="6.581947" lon="536.0"><ele></ele><time>2014-5-26T17:47:30Z</time></trkpt>
<trkpt lat="6.581988" lon="536.0"><ele></ele><time>2014-5-26T17:47:33Z</time></trkpt>
<trkpt lat="6.582028" lon="537.0"><ele></ele><time>2014-5-26T17:47:36Z</time></trkpt>
<trkpt lat="6.582067" lon="537.0"><ele></ele><time>2014-5-26T17:47:39Z</time></trkpt>
<trkpt lat="6.582108" lon="536.0"><ele></ele><time>2014-5-26T17:47:42Z</time></trkpt>
<trkpt lat="6.582155" lon="537.0"><ele></ele><time>2014-5-26T17:47:45Z</time></trkpt>
<trkpt lat="6.582202" lon="538.0"><ele></ele><time>2014-5-26T17:47:48Z</time></trkpt>
<trkpt lat="6.582246" lon="537.0"><ele></ele><time>2014-5-26T17:47:51Z</time></trkpt>
<trkpt lat="6.582280" lon="537.0"><ele></ele><time>2014-5-26T17:47:54Z</time></trkpt>
<trkpt lat="6.582301" lon="537.0"><ele></ele><time>2014-5-26T17:47:57Z</time></trkpt>
<trkpt lat="6.582323" lon="539.0"><ele></ele><time>2014-5-26T17:48:0Z</time></trkpt>
<trkpt lat="6.582345" lon="539.0"><ele></ele><time>2014-5-26T17:48:3Z</time></trkpt>
<trkpt lat="6.582364" lon="539.0"><ele></ele><time>2014-5-26T17:48:6Z</time></trkpt>
<trkpt lat="6.582373" lon="540.0"><ele></ele><time>2014-5-26T17:48:9Z</time></trkpt>
<trkpt lat="6.582361" lon="540.0"><ele></ele><time>2014-5-26T17:48:12Z</time></trkpt>
<trkpt lat="6.582325" lon="541.0"><ele></ele><time>2014-5-26T17:48:15Z</time></trkpt>
<trkpt lat="6.582282" lon="541.0"><ele></ele><time>2014-5-26T17:48:18Z</time></trkpt>
<trkpt lat="6.582239" lon="542.0"><ele></ele><time>2014-5-26T17:48:21Z</time></trkpt>
<trkpt lat="6.582208" lon="542.0"><ele></ele><time>2014-5-26T17:48:24Z</time></trkpt>
<trkpt lat="6.582202" lon="542.0"><ele></ele><time>2014-5-26T17:48:27Z</time></trkpt>
<trkpt lat="6.582220" lon="543.0"><ele></ele><time>2014-5-26T17:48:30Z</time></trkpt>
<trkpt lat="6.582254" lon="543.0"><ele></ele><time>2014-5-26T17:48:33Z</time></trkpt>
<trkpt lat="6.582296" lon="543.0"><ele></ele><time>2014-5-26T17:48:36Z</time></trkpt>
<trkpt lat="6.582333" lon="543.0"><ele></ele><time>2014-5-26T17:48:39Z</time></trkpt>
<trkpt lat="6.582366" lon="544.0"><ele></ele><time>2014-5-26T17:48:42Z</time></trkpt>
<trkpt lat="6.582397" lon="544.0"><ele></ele><time>2014-5-26T17:48:45Z</time></trkpt>
<trkpt lat="6.582425" lon="544.0"><ele></ele><time>2014-5-26T17:48:48Z</time></trkpt>
<trkpt lat="6.582453" lon="545.0"><ele></ele><time>2014-5-26T17:48:51Z</time></trkpt>
<trkpt lat="6.582486" lon="545.0"><ele></ele><time>2014-5-26T17:48:54Z</time></trkpt>
<trkpt lat="6.582519" lon="545.0"><ele></ele><time>2014-5-26T17:48:57Z</time></trkpt>
<trkpt lat="6.582552" lon="546.0"><ele></ele><time>2014-5-26T17:49:0Z</time></trkpt>
<trkpt lat="6.582584" lon="547.0"><ele></ele><time>2014-5-26T17:49:3Z</time></trkpt>
<trkpt lat="6.582615" lon="548.0"><ele></ele><time>2014-5-26T17:49:6Z</time></trkpt>
<trkpt lat="6.582645" lon="548.0"><ele></ele><time>2014-5-26T17:49:9Z</time></trkpt>
<trkpt lat="6.582678" lon="549.0"><ele></ele><time>2014-5-26T17:49:12Z</time></trkpt>
<trkpt lat="6.582711" lon="549.0"><ele></ele><time>2014-5-26T17:49:15Z</time></trkpt>
<trkpt lat="6.582742" lon="551.0"><ele></ele><time>2014-5-26T17:49:18Z</time></trkpt>
<trkpt lat="6.582775" lon="551.0"><ele></ele><time>2014-5-26T17:49:21Z</time></trkpt>
<trkpt lat="6.582811" lon="552.0"><ele></ele><time>2014-5-26T17:49:24Z</time></trkpt>
<trkpt lat="6.582848" lon="553.0"><ele></ele><time>2014-5-26T17:49:27Z</time></trkpt>
<trkpt lat="6.582889" lon="553.0"><ele></ele><time>2014-5-26T17:49:30Z</time></trkpt>
<trkpt lat="6.582931" lon="553.0"><ele></ele><time>2014-5-26T17:49:33Z</time></trkpt>
<trkpt lat="6.582970" lon="553.0"><ele></ele><time>2014-5-26T17:49:36Z</time></trkpt>
<trkpt lat="6.583001" lon="554.0"><ele></ele><time>2014-5-26T17:49:39Z</time></trkpt>
<trkpt lat="6.583029" lon="555.0"><ele></ele><time>2014-5-26T17:49:42Z</time></trkpt>
<trkpt lat="6.583061" lon="556.0"><ele></ele><time>2014-5-26T17:49:45Z</time></trkpt>
<trkpt lat="6.583096" lon="557.0"><ele></ele><time>2014-5-26T17:49:48Z</time></trkpt>
<trkpt lat="6.583133" lon="558.0"><ele></ele><time>2014-5-26T17:49:51Z</time></trkpt>
<trkpt lat="6.583172" lon="558.0"><ele></ele><time>2014-5-26T17:49:54Z</time></trkpt>
<trkpt lat="6.583212" lon="559.0"><ele></ele><time>2014-5-26T17:49:57Z</time></trkpt>
<trkpt lat="6.583249" lon="560.0"><ele></ele><time>2014-5-26T17:50:0Z</time></trkpt>
<trkpt lat="6.583288" lon="561.0"><ele></ele><time>2014-5-26T17:50:3Z</time></trkpt>
<trkpt lat="6.583329" lon="562.0"><ele></ele><time>2014-5-26T17:50:6Z</time></trkpt>
<trkpt lat="6.583375" lon="563.0"><ele></ele><time>2014-5-26T17:50:9Z</time></trkpt>
<trkpt lat="6.583449" lon="564.0"><ele></ele><time>2014-5-26T17:50:12Z</time></trkpt>
<trkpt lat="6.583541" lon="564.0"><ele></ele><time>2014-5-26T17:50:15Z</time></trkpt>
<trkpt lat="6.583614" lon="565.0"><ele></ele><time>2014-5-26T17:50:18Z</time></trkpt>
<trkpt lat="6.583680" lon="565.0"><ele></ele><time>2014-5-26T17:50:21Z</time></trkpt>
<trkpt lat="6.583748" lon="565.0"><ele></ele><time>2014-5-26T17:50:24Z</time></trkpt>
<trkpt lat="6.583811" lon="566.0"><ele></ele><time>2014-5-26T17:50:27Z</time></trkpt>
<trkpt lat="6.583871" lon="566.0"><ele></ele><time>2014-5-26T17:50:30Z</time></trkpt>
<trkpt lat="6.583929" lon="567.0"><ele></ele><time>2014-5-26T17:50:33Z</time></trkpt>
<trkpt lat="6.583966" lon="568.0"><ele></ele><time>2014-5-26T17:50:36Z</time></trkpt>
<trkpt lat="6.583973" lon="569.0"><ele></ele><time>2014-5-26T17:50:39Z</time></trkpt>
<trkpt lat="6.583951" lon="570.0"><ele></ele><time>2014-5-26T17:50:42Z</time></trkpt>
<trkpt lat="6.583919" lon="570.0"><ele></ele><time>2014-5-26T17:50:45Z</time></trkpt>
<trkpt lat="6.583905" lon="571.0"><ele></ele><time>2014-5-26T17:50:48Z</time></trkpt>
<trkpt lat="6.583899" lon="572.0"><ele></ele><time>2014-5-26T17:50:51Z</time></trkpt>
<trkpt lat="6.583911" lon="571.0"><ele></ele><time>2014-5-26T17:50:54Z</time></trkpt>
<trkpt lat="6.583936" lon="572.0"><ele></ele><time>2014-5-26T17:50:57Z</time></trkpt>
<trkpt lat="6.583979" lon="573.0"><ele></ele><time>2014-5-26T17:51:0Z</time></trkpt>
<trkpt lat="6.584041" lon="574.0"><ele></ele><time>2014-5-26T17:51:3Z</time></trkpt>
<trkpt lat="6.584113" lon="574.0"><ele></ele><time>2014-5-26T17:51:6Z</time></trkpt>
<trkpt lat="6.584167" lon="575.0"><ele></ele><time>2014-5-26T17:51:9Z</time></trkpt>
<trkpt lat="6.584203" lon="575.0"><ele></ele><time>2014-5-26T17:51:12Z</time></trkpt>
<trkpt lat="6.584228" lon="575.0"><ele></ele><time>2014-5-26T17:51:15Z</time></trkpt>
<trkpt lat="6.584244" lon="575.0"><ele></ele><time>2014-5-26T17:51:18Z</time></trkpt>
<trkpt lat="6.584366" lon="578.0"><ele></ele><time>2014-5-26T17:51:21Z</time></trkpt>
<trkpt lat="6.584401" lon="578.0"><ele></ele><time>2014-5-26T17:51:24Z</time></trkpt>
<trkpt lat="6.584420" lon="578.0"><ele></ele><time>2014-5-26T17:51:27Z</time></trkpt>
<trkpt lat="6.584523" lon="582.0"><ele></ele><time>2014-5-26T17:51:30Z</time></trkpt>
<trkpt lat="6.584534" lon="582.0"><ele></ele><time>2014-5-26T17:51:33Z</time></trkpt>
<trkpt lat="6.584538" lon="582.0"><ele></ele><time>2014-5-26T17:51:36Z</time></trkpt>
<trkpt lat="6.584541" lon="583.0"><ele></ele><time>2014-5-26T17:51:39Z</time></trkpt>
<trkpt lat="6.584544" lon="584.0"><ele></ele><time>2014-5-26T17:51:42Z</time></trkpt>
<trkpt lat="6.584549" lon="584.0"><ele></ele><time>2014-5-26T17:51:45Z</time></trkpt>
<trkpt lat="6.584555" lon="584.0"><ele></ele><time>2014-5-26T17:51:48Z</time></trkpt>
<trkpt lat="6.584562" lon="585.0"><ele></ele><time>2014-5-26T17:51:51Z</time></trkpt>
<trkpt lat="6.584569" lon="585.0"><ele></ele><time>2014-5-26T17:51:54Z</time></trkpt>
<trkpt lat="6.584579" lon="584.0"><ele></ele><time>2014-5-26T17:51:57Z</time></trkpt>
<trkpt lat="6.584585" lon="584.0"><ele></ele><time>2014-5-26T17:52:0Z</time></trkpt>
<trkpt lat="6.584592" lon="584.0"><ele></ele><time>2014-5-26T17:52:3Z</time></trkpt>
<trkpt lat="6.584605" lon="584.0"><ele></ele><time>2014-5-26T17:52:6Z</time></trkpt>
<trkpt lat="6.584619" lon="584.0"><ele></ele><time>2014-5-26T17:52:9Z</time></trkpt>
<trkpt lat="6.584634" lon="584.0"><ele></ele><time>2014-5-26T17:52:12Z</time></trkpt>
<trkpt lat="6.584649" lon="583.0"><ele></ele><time>2014-5-26T17:52:15Z</time></trkpt>
<trkpt lat="6.584660" lon="583.0"><ele></ele><time>2014-5-26T17:52:18Z</time></trkpt>
<trkpt lat="6.584742" lon="582.0"><ele></ele><time>2014-5-26T17:52:21Z</time></trkpt>
<trkpt lat="6.584678" lon="582.0"><ele></ele><time>2014-5-26T17:52:24Z</time></trkpt>
<trkpt lat="6.584658" lon="581.0"><ele></ele><time>2014-5-26T17:52:27Z</time></trkpt>
<trkpt lat="6.584601" lon="582.0"><ele></ele><time>2014-5-26T17:52:30Z</time></trkpt>
<trkpt lat="6.584590" lon="583.0"><ele></ele><time>2014-5-26T17:52:33Z</time></trkpt>
<trkpt lat="6.584583" lon="583.0"><ele></ele><time>2014-5-26T17:52:36Z</time></trkpt>
<trkpt lat="6.584588" lon="583.0"><ele></ele><time>2014-5-26T17:52:39Z</time></trkpt>
<trkpt lat="6.584636" lon="583.0"><ele></ele><time>2014-5-26T17:52:42Z</time></trkpt>
<trkpt lat="6.584742" lon="583.0"><ele></ele><time>2014-5-26T17:52:45Z</time></trkpt>
<trkpt lat="6.584875" lon="583.0"><ele></ele><time>2014-5-26T17:52:48Z</time></trkpt>
<trkpt lat="6.585037" lon="582.0"><ele></ele><time>2014-5-26T17:52:51Z</time></trkpt>
<trkpt lat="6.585223" lon="581.0"><ele></ele><time>2014-5-26T17:52:54Z</time></trkpt>
<trkpt lat="6.585395" lon="581.0"><ele></ele><time>2014-5-26T17:52:57Z</time></trkpt>
<trkpt lat="6.585551" lon="580.0"><ele></ele><time>2014-5-26T17:53:0Z</time></trkpt>
<trkpt lat="6.585656" lon="580.0"><ele></ele><time>2014-5-26T17:53:3Z</time></trkpt>
<trkpt lat="6.585682" lon="581.0"><ele></ele><time>2014-5-26T17:53:6Z</time></trkpt>
<trkpt lat="6.585675" lon="583.0"><ele></ele><time>2014-5-26T17:53:9Z</time></trkpt>
<trkpt lat="6.585675" lon="583.0"><ele></ele><time>2014-5-26T17:53:12Z</time></trkpt>
<trkpt lat="6.585677" lon="586.0"><ele></ele><time>2014-5-26T17:53:15Z</time></trkpt>
<trkpt lat="6.585712" lon="586.0"><ele></ele><time>2014-5-26T17:53:18Z</time></trkpt>
<trkpt lat="6.585755" lon="587.0"><ele></ele><time>2014-5-26T17:53:21Z</time></trkpt>
<trkpt lat="6.585828" lon="586.0"><ele></ele><time>2014-5-26T17:53:24Z</time></trkpt>
<trkpt lat="6.585935" lon="586.0"><ele></ele><time>2014-5-26T17:53:27Z</time></trkpt>
<trkpt lat="6.586025" lon="586.0"><ele></ele><time>2014-5-26T17:53:30Z</time></trkpt>
<trkpt lat="6.586118" lon="586.0"><ele></ele><time>2014-5-26T17:53:33Z</time></trkpt>
<trkpt lat="6.586206" lon="587.0"><ele></ele><time>2014-5-26T17:53:36Z</time></trkpt>
<trkpt lat="6.586312" lon="587.0"><ele></ele><time>2014-5-26T17:53:39Z</time></trkpt>
<trkpt lat="6.586445" lon="588.0"><ele></ele><time>2014-5-26T17:53:42Z</time></trkpt>
<trkpt lat="6.586560" lon="589.0"><ele></ele><time>2014-5-26T17:53:45Z</time></trkpt>
<trkpt lat="6.586661" lon="590.0"><ele></ele><time>2014-5-26T17:53:48Z</time></trkpt>
<trkpt lat="6.586744" lon="590.0"><ele></ele><time>2014-5-26T17:53:51Z</time></trkpt>
<trkpt lat="6.586818" lon="590.0"><ele></ele><time>2014-5-26T17:53:54Z</time></trkpt>
<trkpt lat="6.586892" lon="590.0"><ele></ele><time>2014-5-26T17:53:57Z</time></trkpt>
<trkpt lat="6.586961" lon="590.0"><ele></ele><time>2014-5-26T17:54:0Z</time></trkpt>
<trkpt lat="6.587022" lon="590.0"><ele></ele><time>2014-5-26T17:54:3Z</time></trkpt>
<trkpt lat="6.587077" lon="590.0"><ele></ele><time>2014-5-26T17:54:6Z</time></trkpt>
<trkpt lat="6.587131" lon="591.0"><ele></ele><time>2014-5-26T17:54:9Z</time></trkpt>
<trkpt lat="6.587190" lon="591.0"><ele></ele><time>2014-5-26T17:54:12Z</time></trkpt>
<trkpt lat="6.587251" lon="590.0"><ele></ele><time>2014-5-26T17:54:15Z</time></trkpt>
<trkpt lat="6.587313" lon="589.0"><ele></ele><time>2014-5-26T17:54:18Z</time></trkpt>
<trkpt lat="6.587374" lon="588.0"><ele></ele><time>2014-5-26T17:54:21Z</time></trkpt>
<trkpt lat="6.587374" lon="588.0"><ele></ele><time>2014-5-26T17:54:24Z</time></trkpt>
<trkpt lat="6.587460" lon="589.0"><ele></ele><time>2014-5-26T17:54:27Z</time></trkpt>
<trkpt lat="6.587535" lon="589.0"><ele></ele><time>2014-5-26T17:54:30Z</time></trkpt>
<trkpt lat="6.587610" lon="589.0"><ele></ele><time>2014-5-26T17:54:33Z</time></trkpt>
<trkpt lat="6.587683" lon="589.0"><ele></ele><time>2014-5-26T17:54:36Z</time></trkpt>
<trkpt lat="6.587743" lon="590.0"><ele></ele><time>2014-5-26T17:54:39Z</time></trkpt>
<trkpt lat="6.587806" lon="590.0"><ele></ele><time>2014-5-26T17:54:42Z</time></trkpt>
<trkpt lat="6.587855" lon="590.0"><ele></ele><time>2014-5-26T17:54:45Z</time></trkpt>
<trkpt lat="6.587891" lon="592.0"><ele></ele><time>2014-5-26T17:54:48Z</time></trkpt>
<trkpt lat="6.587923" lon="592.0"><ele></ele><time>2014-5-26T17:54:51Z</time></trkpt>
<trkpt lat="6.587958" lon="592.0"><ele></ele><time>2014-5-26T17:54:54Z</time></trkpt>
<trkpt lat="6.587994" lon="594.0"><ele></ele><time>2014-5-26T17:54:57Z</time></trkpt>
<trkpt lat="6.588015" lon="594.0"><ele></ele><time>2014-5-26T17:55:0Z</time></trkpt>
<trkpt lat="6.588028" lon="594.0"><ele></ele><time>2014-5-26T17:55:3Z</time></trkpt>
<trkpt lat="6.588040" lon="594.0"><ele></ele><time>2014-5-26T17:55:6Z</time></trkpt>
<trkpt lat="6.588048" lon="594.0"><ele></ele><time>2014-5-26T17:55:9Z</time></trkpt>
<trkpt lat="6.588054" lon="595.0"><ele></ele><time>2014-5-26T17:55:12Z</time></trkpt>
<trkpt lat="6.588051" lon="596.0"><ele></ele><time>2014-5-26T17:55:15Z</time></trkpt>
<trkpt lat="6.588047" lon="597.0"><ele></ele><time>2014-5-26T17:55:18Z</time></trkpt>
<trkpt lat="6.588042" lon="597.0"><ele></ele><time>2014-5-26T17:55:21Z</time></trkpt>
<trkpt lat="6.588033" lon="598.0"><ele></ele><time>2014-5-26T17:55:24Z</time></trkpt>
<trkpt lat="6.588022" lon="598.0"><ele></ele><time>2014-5-26T17:55:27Z</time></trkpt>
<trkpt lat="6.588011" lon="599.0"><ele></ele><time>2014-5-26T17:55:30Z</time></trkpt>
<trkpt lat="6.587991" lon="599.0"><ele></ele><time>2014-5-26T17:55:33Z</time></trkpt>
<trkpt lat="6.587981" lon="600.0"><ele></ele><time>2014-5-26T17:55:36Z</time></trkpt>
<trkpt lat="6.587970" lon="600.0"><ele></ele><time>2014-5-26T17:55:39Z</time></trkpt>
<trkpt lat="6.587958" lon="600.0"><ele></ele><time>2014-5-26T17:55:42Z</time></trkpt>
<trkpt lat="6.587929" lon="600.0"><ele></ele><time>2014-5-26T17:55:45Z</time></trkpt>
<trkpt lat="6.587913" lon="600.0"><ele></ele><time>2014-5-26T17:55:48Z</time></trkpt>
<trkpt lat="6.587883" lon="601.0"><ele></ele><time>2014-5-26T17:55:51Z</time></trkpt>
<trkpt lat="6.587858" lon="601.0"><ele></ele><time>2014-5-26T17:55:54Z</time></trkpt>
<trkpt lat="6.587830" lon="601.0"><ele></ele><time>2014-5-26T17:55:57Z</time></trkpt>
<trkpt lat="6.587801" lon="603.0"><ele></ele><time>2014-5-26T17:56:0Z</time></trkpt>
<trkpt lat="6.587814" lon="605.0"><ele></ele><time>2014-5-26T17:56:3Z</time></trkpt>
<trkpt lat="6.587818" lon="605.0"><ele></ele><time>2014-5-26T17:56:6Z</time></trkpt>
<trkpt lat="6.587839" lon="605.0"><ele></ele><time>2014-5-26T17:56:9Z</time></trkpt>
<trkpt lat="6.587865" lon="606.0"><ele></ele><time>2014-5-26T17:56:12Z</time></trkpt>
<trkpt lat="6.587879" lon="606.0"><ele></ele><time>2014-5-26T17:56:15Z</time></trkpt>
<trkpt lat="6.587923" lon="607.0"><ele></ele><time>2014-5-26T17:56:18Z</time></trkpt>
<trkpt lat="6.587945" lon="607.0"><ele></ele><time>2014-5-26T17:56:21Z</time></trkpt>
<trkpt lat="6.587971" lon="607.0"><ele></ele><time>2014-5-26T17:56:24Z</time></trkpt>
<trkpt lat="6.587992" lon="608.0"><ele></ele><time>2014-5-26T17:56:27Z</time></trkpt>
<trkpt lat="6.588026" lon="607.0"><ele></ele><time>2014-5-26T17:56:30Z</time></trkpt>
<trkpt lat="6.588063" lon="607.0"><ele></ele><time>2014-5-26T17:56:33Z</time></trkpt>
<trkpt lat="6.588118" lon="606.0"><ele></ele><time>2014-5-26T17:56:36Z</time></trkpt>
<trkpt lat="6.588166" lon="607.0"><ele></ele><time>2014-5-26T17:56:39Z</time></trkpt>
<trkpt lat="6.588212" lon="608.0"><ele></ele><time>2014-5-26T17:56:42Z</time></trkpt>
<trkpt lat="6.588226" lon="608.0"><ele></ele><time>2014-5-26T17:56:45Z</time></trkpt>
<trkpt lat="6.588239" lon="608.0"><ele></ele><time>2014-5-26T17:56:48Z</time></trkpt>
<trkpt lat="6.588283" lon="609.0"><ele></ele><time>2014-5-26T17:56:51Z</time></trkpt>
<trkpt lat="6.588308" lon="610.0"><ele></ele><time>2014-5-26T17:56:54Z</time></trkpt>
<trkpt lat="6.588333" lon="610.0"><ele></ele><time>2014-5-26T17:56:57Z</time></trkpt>
<trkpt lat="6.588360" lon="613.0"><ele></ele><time>2014-5-26T17:57:0Z</time></trkpt>
<trkpt lat="6.588382" lon="613.0"><ele></ele><time>2014-5-26T17:57:3Z</time></trkpt>
<trkpt lat="6.588388" lon="614.0"><ele></ele><time>2014-5-26T17:57:6Z</time></trkpt>
<trkpt lat="6.588401" lon="615.0"><ele></ele><time>2014-5-26T17:57:9Z</time></trkpt>
<trkpt lat="6.588414" lon="615.0"><ele></ele><time>2014-5-26T17:57:12Z</time></trkpt>
<trkpt lat="6.588429" lon="614.0"><ele></ele><time>2014-5-26T17:57:15Z</time></trkpt>
<trkpt lat="6.588438" lon="613.0"><ele></ele><time>2014-5-26T17:57:18Z</time></trkpt>
<trkpt lat="6.588445" lon="614.0"><ele></ele><time>2014-5-26T17:57:21Z</time></trkpt>
<trkpt lat="6.588448" lon="614.0"><ele></ele><time>2014-5-26T17:57:24Z</time></trkpt>
<trkpt lat="6.588448" lon="613.0"><ele></ele><time>2014-5-26T17:57:27Z</time></trkpt>
<trkpt lat="6.588449" lon="613.0"><ele></ele><time>2014-5-26T17:57:30Z</time></trkpt>
<trkpt lat="6.588446" lon="614.0"><ele></ele><time>2014-5-26T17:57:33Z</time></trkpt>
<trkpt lat="6.588437" lon="613.0"><ele></ele><time>2014-5-26T17:57:36Z</time></trkpt>
<trkpt lat="6.588423" lon="613.0"><ele></ele><time>2014-5-26T17:57:39Z</time></trkpt>
<trkpt lat="6.588405" lon="613.0"><ele></ele><time>2014-5-26T17:57:42Z</time></trkpt>
<trkpt lat="6.588385" lon="614.0"><ele></ele><time>2014-5-26T17:57:45Z</time></trkpt>
<trkpt lat="6.588366" lon="615.0"><ele></ele><time>2014-5-26T17:57:48Z</time></trkpt>
<trkpt lat="6.588358" lon="617.0"><ele></ele><time>2014-5-26T17:57:51Z</time></trkpt>
<trkpt lat="6.588347" lon="618.0"><ele></ele><time>2014-5-26T17:57:54Z</time></trkpt>
<trkpt lat="6.588333" lon="618.0"><ele></ele><time>2014-5-26T17:57:57Z</time></trkpt>
<trkpt lat="6.588315" lon="619.0"><ele></ele><time>2014-5-26T17:58:0Z</time></trkpt>
<trkpt lat="6.588292" lon="620.0"><ele></ele><time>2014-5-26T17:58:3Z</time></trkpt>
<trkpt lat="6.588267" lon="622.0"><ele></ele><time>2014-5-26T17:58:6Z</time></trkpt>
<trkpt lat="6.588236" lon="622.0"><ele></ele><time>2014-5-26T17:58:9Z</time></trkpt>
<trkpt lat="6.588199" lon="623.0"><ele></ele><time>2014-5-26T17:58:12Z</time></trkpt>
<trkpt lat="6.588153" lon="624.0"><ele></ele><time>2014-5-26T17:58:15Z</time></trkpt>
<trkpt lat="6.588102" lon="624.0"><ele></ele><time>2014-5-26T17:58:18Z</time></trkpt>
<trkpt lat="6.588048" lon="625.0"><ele></ele><time>2014-5-26T17:58:21Z</time></trkpt>
<trkpt lat="6.587991" lon="626.0"><ele></ele><time>2014-5-26T17:58:24Z</time></trkpt>
<trkpt lat="6.587928" lon="627.0"><ele></ele><time>2014-5-26T17:58:27Z</time></trkpt>
<trkpt lat="6.587860" lon="627.0"><ele></ele><time>2014-5-26T17:58:30Z</time></trkpt>
<trkpt lat="6.587785" lon="627.0"><ele></ele><time>2014-5-26T17:58:33Z</time></trkpt>
<trkpt lat="6.587703" lon="627.0"><ele></ele><time>2014-5-26T17:58:36Z</time></trkpt>
<trkpt lat="6.587632" lon="627.0"><ele></ele><time>2014-5-26T17:58:39Z</time></trkpt>
<trkpt lat="6.587589" lon="625.0"><ele></ele><time>2014-5-26T17:58:42Z</time></trkpt>
<trkpt lat="6.587574" lon="624.0"><ele></ele><time>2014-5-26T17:58:45Z</time></trkpt>
<trkpt lat="6.587580" lon="624.0"><ele></ele><time>2014-5-26T17:58:48Z</time></trkpt>
<trkpt lat="6.587605" lon="623.0"><ele></ele><time>2014-5-26T17:58:51Z</time></trkpt>
<trkpt lat="6.587643" lon="622.0"><ele></ele><time>2014-5-26T17:58:54Z</time></trkpt>
<trkpt lat="6.587687" lon="622.0"><ele></ele><time>2014-5-26T17:58:57Z</time></trkpt>
<trkpt lat="6.587736" lon="621.0"><ele></ele><time>2014-5-26T17:59:0Z</time></trkpt>
<trkpt lat="6.587817" lon="621.0"><ele></ele><time>2014-5-26T17:59:3Z</time></trkpt>
<trkpt lat="6.587878" lon="621.0"><ele></ele><time>2014-5-26T17:59:6Z</time></trkpt>
<trkpt lat="6.587937" lon="621.0"><ele></ele><time>2014-5-26T17:59:9Z</time></trkpt>
<trkpt lat="6.587995" lon="620.0"><ele></ele><time>2014-5-26T17:59:12Z</time></trkpt>
<trkpt lat="6.588053" lon="619.0"><ele></ele><time>2014-5-26T17:59:15Z</time></trkpt>
<trkpt lat="6.588108" lon="619.0"><ele></ele><time>2014-5-26T17:59:18Z</time></trkpt>
<trkpt lat="6.588165" lon="619.0"><ele></ele><time>2014-5-26T17:59:21Z</time></trkpt>
<trkpt lat="6.588217" lon="619.0"><ele></ele><time>2014-5-26T17:59:24Z</time></trkpt>
<trkpt lat="6.588264" lon="619.0"><ele></ele><time>2014-5-26T17:59:27Z</time></trkpt>
<trkpt lat="6.588316" lon="620.0"><ele></ele><time>2014-5-26T17:59:30Z</time></trkpt>
<trkpt lat="6.588379" lon="619.0"><ele></ele><time>2014-5-26T17:59:33Z</time></trkpt>
<trkpt lat="6.588447" lon="619.0"><ele></ele><time>2014-5-26T17:59:36Z</time></trkpt>
<trkpt lat="6.588513" lon="618.0"><ele></ele><time>2014-5-26T17:59:39Z</time></trkpt>
<trkpt lat="6.588578" lon="618.0"><ele></ele><time>2014-5-26T17:59:42Z</time></trkpt>
<trkpt lat="6.588643" lon="618.0"><ele></ele><time>2014-5-26T17:59:45Z</time></trkpt>
<trkpt lat="6.588707" lon="618.0"><ele></ele><time>2014-5-26T17:59:48Z</time></trkpt>
<trkpt lat="6.588771" lon="619.0"><ele></ele><time>2014-5-26T17:59:51Z</time></trkpt>
<trkpt lat="6.588836" lon="619.0"><ele></ele><time>2014-5-26T17:59:54Z</time></trkpt>
<trkpt lat="6.588897" lon="618.0"><ele></ele><time>2014-5-26T17:59:57Z</time></trkpt>
<trkpt lat="6.588944" lon="618.0"><ele></ele><time>2014-5-26T18:0:0Z</time></trkpt>
<trkpt lat="6.588992" lon="618.0"><ele></ele><time>2014-5-26T18:0:3Z</time></trkpt>
<trkpt lat="6.589040" lon="618.0"><ele></ele><time>2014-5-26T18:0:6Z</time></trkpt>
<trkpt lat="6.589085" lon="618.0"><ele></ele><time>2014-5-26T18:0:9Z</time></trkpt>
<trkpt lat="6.589085" lon="618.0"><ele></ele><time>2014-5-26T18:0:12Z</time></trkpt>
<trkpt lat="6.589212" lon="619.0"><ele></ele><time>2014-5-26T18:0:15Z</time></trkpt>
<trkpt lat="6.589261" lon="619.0"><ele></ele><time>2014-5-26T18:0:18Z</time></trkpt>
<trkpt lat="6.589307" lon="620.0"><ele></ele><time>2014-5-26T18:0:21Z</time></trkpt>
<trkpt lat="6.589344" lon="620.0"><ele></ele><time>2014-5-26T18:0:24Z</time></trkpt>
<trkpt lat="6.589376" lon="620.0"><ele></ele><time>2014-5-26T18:0:27Z</time></trkpt>
<trkpt lat="6.589407" lon="620.0"><ele></ele><time>2014-5-26T18:0:30Z</time></trkpt>
<trkpt lat="6.589439" lon="620.0"><ele></ele><time>2014-5-26T18:0:33Z</time></trkpt>
<trkpt lat="6.589470" lon="620.0"><ele></ele><time>2014-5-26T18:0:36Z</time></trkpt>
<trkpt lat="6.589500" lon="621.0"><ele></ele><time>2014-5-26T18:0:39Z</time></trkpt>
<trkpt lat="6.589528" lon="621.0"><ele></ele><time>2014-5-26T18:0:42Z</time></trkpt>
<trkpt lat="6.589560" lon="622.0"><ele></ele><time>2014-5-26T18:0:45Z</time></trkpt>
<trkpt lat="6.589590" lon="622.0"><ele></ele><time>2014-5-26T18:0:48Z</time></trkpt>
<trkpt lat="6.589623" lon="622.0"><ele></ele><time>2014-5-26T18:0:51Z</time></trkpt>
<trkpt lat="6.589674" lon="622.0"><ele></ele><time>2014-5-26T18:0:54Z</time></trkpt>
<trkpt lat="6.589747" lon="622.0"><ele></ele><time>2014-5-26T18:0:57Z</time></trkpt>
<trkpt lat="6.589829" lon="623.0"><ele></ele><time>2014-5-26T18:1:0Z</time></trkpt>
<trkpt lat="6.589915" lon="623.0"><ele></ele><time>2014-5-26T18:1:3Z</time></trkpt>
<trkpt lat="6.590001" lon="623.0"><ele></ele><time>2014-5-26T18:1:6Z</time></trkpt>
<trkpt lat="6.590101" lon="624.0"><ele></ele><time>2014-5-26T18:1:9Z</time></trkpt>
<trkpt lat="6.590206" lon="624.0"><ele></ele><time>2014-5-26T18:1:12Z</time></trkpt>
<trkpt lat="6.590328" lon="623.0"><ele></ele><time>2014-5-26T18:1:15Z</time></trkpt>
<trkpt lat="6.590448" lon="623.0"><ele></ele><time>2014-5-26T18:1:18Z</time></trkpt>
<trkpt lat="6.590574" lon="624.0"><ele></ele><time>2014-5-26T18:1:21Z</time></trkpt>
<trkpt lat="6.590699" lon="623.0"><ele></ele><time>2014-5-26T18:1:24Z</time></trkpt>
<trkpt lat="6.590835" lon="623.0"><ele></ele><time>2014-5-26T18:1:27Z</time></trkpt>
<trkpt lat="6.590971" lon="623.0"><ele></ele><time>2014-5-26T18:1:30Z</time></trkpt>
<trkpt lat="6.591091" lon="623.0"><ele></ele><time>2014-5-26T18:1:33Z</time></trkpt>
<trkpt lat="6.591203" lon="622.0"><ele></ele><time>2014-5-26T18:1:36Z</time></trkpt>
<trkpt lat="6.591297" lon="620.0"><ele></ele><time>2014-5-26T18:1:39Z</time></trkpt>
<trkpt lat="6.591356" lon="619.0"><ele></ele><time>2014-5-26T18:1:42Z</time></trkpt>
<trkpt lat="6.591383" lon="619.0"><ele></ele><time>2014-5-26T18:1:45Z</time></trkpt>
<trkpt lat="6.591417" lon="619.0"><ele></ele><time>2014-5-26T18:1:48Z</time></trkpt>
<trkpt lat="6.591464" lon="618.0"><ele></ele><time>2014-5-26T18:1:51Z</time></trkpt>
<trkpt lat="6.591535" lon="618.0"><ele></ele><time>2014-5-26T18:1:54Z</time></trkpt>
<trkpt lat="6.591614" lon="617.0"><ele></ele><time>2014-5-26T18:1:57Z</time></trkpt>
<trkpt lat="6.591699" lon="617.0"><ele></ele><time>2014-5-26T18:2:0Z</time></trkpt>
<trkpt lat="6.591797" lon="617.0"><ele></ele><time>2014-5-26T18:2:3Z</time></trkpt>
<trkpt lat="6.591898" lon="618.0"><ele></ele><time>2014-5-26T18:2:6Z</time></trkpt>
<trkpt lat="6.591988" lon="618.0"><ele></ele><time>2014-5-26T18:2:9Z</time></trkpt>
<trkpt lat="6.592066" lon="619.0"><ele></ele><time>2014-5-26T18:2:12Z</time></trkpt>
<trkpt lat="6.592119" lon="619.0"><ele></ele><time>2014-5-26T18:2:15Z</time></trkpt>
<trkpt lat="6.592140" lon="620.0"><ele></ele><time>2014-5-26T18:2:18Z</time></trkpt>
<trkpt lat="6.592147" lon="620.0"><ele></ele><time>2014-5-26T18:2:21Z</time></trkpt>
<trkpt lat="6.592153" lon="621.0"><ele></ele><time>2014-5-26T18:2:24Z</time></trkpt>
<trkpt lat="6.592193" lon="621.0"><ele></ele><time>2014-5-26T18:2:27Z</time></trkpt>
<trkpt lat="6.592216" lon="621.0"><ele></ele><time>2014-5-26T18:2:30Z</time></trkpt>
<trkpt lat="6.592256" lon="622.0"><ele></ele><time>2014-5-26T18:2:33Z</time></trkpt>
<trkpt lat="6.592320" lon="621.0"><ele></ele><time>2014-5-26T18:2:36Z</time></trkpt>
<trkpt lat="6.592387" lon="621.0"><ele></ele><time>2014-5-26T18:2:39Z</time></trkpt>
<trkpt lat="6.592451" lon="622.0"><ele></ele><time>2014-5-26T18:2:42Z</time></trkpt>
<trkpt lat="6.592503" lon="622.0"><ele></ele><time>2014-5-26T18:2:45Z</time></trkpt>
<trkpt lat="6.592543" lon="622.0"><ele></ele><time>2014-5-26T18:2:48Z</time></trkpt>
<trkpt lat="6.592571" lon="622.0"><ele></ele><time>2014-5-26T18:2:51Z</time></trkpt>
<trkpt lat="6.592597" lon="622.0"><ele></ele><time>2014-5-26T18:2:54Z</time></trkpt>
<trkpt lat="6.592631" lon="622.0"><ele></ele><time>2014-5-26T18:2:57Z</time></trkpt>
<trkpt lat="6.592675" lon="621.0"><ele></ele><time>2014-5-26T18:3:0Z</time></trkpt>
<trkpt lat="6.592720" lon="622.0"><ele></ele><time>2014-5-26T18:3:3Z</time></trkpt>
<trkpt lat="6.592766" lon="622.0"><ele></ele><time>2014-5-26T18:3:6Z</time></trkpt>
<trkpt lat="6.592816" lon="622.0"><ele></ele><time>2014-5-26T18:3:9Z</time></trkpt>
<trkpt lat="6.592871" lon="622.0"><ele></ele><time>2014-5-26T18:3:12Z</time></trkpt>
<trkpt lat="6.592928" lon="622.0"><ele></ele><time>2014-5-26T18:3:15Z</time></trkpt>
<trkpt lat="6.592987" lon="623.0"><ele></ele><time>2014-5-26T18:3:18Z</time></trkpt>
<trkpt lat="6.593052" lon="623.0"><ele></ele><time>2014-5-26T18:3:21Z</time></trkpt>
<trkpt lat="6.593122" lon="624.0"><ele></ele><time>2014-5-26T18:3:24Z</time></trkpt>
<trkpt lat="6.593193" lon="624.0"><ele></ele><time>2014-5-26T18:3:27Z</time></trkpt>
<trkpt lat="6.593263" lon="624.0"><ele></ele><time>2014-5-26T18:3:30Z</time></trkpt>
<trkpt lat="6.593333" lon="624.0"><ele></ele><time>2014-5-26T18:3:33Z</time></trkpt>
<trkpt lat="6.593402" lon="624.0"><ele></ele><time>2014-5-26T18:3:36Z</time></trkpt>
<trkpt lat="6.593472" lon="624.0"><ele></ele><time>2014-5-26T18:3:39Z</time></trkpt>
<trkpt lat="6.593542" lon="625.0"><ele></ele><time>2014-5-26T18:3:42Z</time></trkpt>
<trkpt lat="6.593613" lon="625.0"><ele></ele><time>2014-5-26T18:3:45Z</time></trkpt>
<trkpt lat="6.593683" lon="625.0"><ele></ele><time>2014-5-26T18:3:48Z</time></trkpt>
<trkpt lat="6.593760" lon="626.0"><ele></ele><time>2014-5-26T18:3:51Z</time></trkpt>
<trkpt lat="6.593864" lon="626.0"><ele></ele><time>2014-5-26T18:3:54Z</time></trkpt>
<trkpt lat="6.593973" lon="626.0"><ele></ele><time>2014-5-26T18:3:57Z</time></trkpt>
<trkpt lat="6.594075" lon="626.0"><ele></ele><time>2014-5-26T18:4:0Z</time></trkpt>
<trkpt lat="6.594186" lon="626.0"><ele></ele><time>2014-5-26T18:4:3Z</time></trkpt>
<trkpt lat="6.594295" lon="627.0"><ele></ele><time>2014-5-26T18:4:6Z</time></trkpt>
<trkpt lat="6.594393" lon="627.0"><ele></ele><time>2014-5-26T18:4:9Z</time></trkpt>
<trkpt lat="6.594483" lon="627.0"><ele></ele><time>2014-5-26T18:4:12Z</time></trkpt>
<trkpt lat="6.594583" lon="627.0"><ele></ele><time>2014-5-26T18:4:15Z</time></trkpt>
<trkpt lat="6.594694" lon="628.0"><ele></ele><time>2014-5-26T18:4:18Z</time></trkpt>
<trkpt lat="6.594817" lon="628.0"><ele></ele><time>2014-5-26T18:4:21Z</time></trkpt>
<trkpt lat="6.594947" lon="629.0"><ele></ele><time>2014-5-26T18:4:24Z</time></trkpt>
<trkpt lat="6.595080" lon="629.0"><ele></ele><time>2014-5-26T18:4:27Z</time></trkpt>
<trkpt lat="6.595201" lon="629.0"><ele></ele><time>2014-5-26T18:4:30Z</time></trkpt>
<trkpt lat="6.595268" lon="629.0"><ele></ele><time>2014-5-26T18:4:33Z</time></trkpt>
<trkpt lat="6.595268" lon="629.0"><ele></ele><time>2014-5-26T18:4:36Z</time></trkpt>
<trkpt lat="6.595567" lon="630.0"><ele></ele><time>2014-5-26T18:4:39Z</time></trkpt>
<trkpt lat="6.595632" lon="630.0"><ele></ele><time>2014-5-26T18:4:42Z</time></trkpt>
<trkpt lat="6.595708" lon="630.0"><ele></ele><time>2014-5-26T18:4:45Z</time></trkpt>
<trkpt lat="6.595791" lon="630.0"><ele></ele><time>2014-5-26T18:4:48Z</time></trkpt>
<trkpt lat="6.595872" lon="630.0"><ele></ele><time>2014-5-26T18:4:51Z</time></trkpt>
<trkpt lat="6.595958" lon="630.0"><ele></ele><time>2014-5-26T18:4:54Z</time></trkpt>
<trkpt lat="6.596051" lon="630.0"><ele></ele><time>2014-5-26T18:4:57Z</time></trkpt>
<trkpt lat="6.596166" lon="631.0"><ele></ele><time>2014-5-26T18:5:0Z</time></trkpt>
<trkpt lat="6.596287" lon="632.0"><ele></ele><time>2014-5-26T18:5:3Z</time></trkpt>
<trkpt lat="6.596406" lon="632.0"><ele></ele><time>2014-5-26T18:5:6Z</time></trkpt>
<trkpt lat="6.596513" lon="632.0"><ele></ele><time>2014-5-26T18:5:9Z</time></trkpt>
<trkpt lat="6.596614" lon="633.0"><ele></ele><time>2014-5-26T18:5:12Z</time></trkpt>
<trkpt lat="6.596698" lon="632.0"><ele></ele><time>2014-5-26T18:5:15Z</time></trkpt>
<trkpt lat="6.596766" lon="632.0"><ele></ele><time>2014-5-26T18:5:18Z</time></trkpt>
<trkpt lat="6.596814" lon="633.0"><ele></ele><time>2014-5-26T18:5:21Z</time></trkpt>
<trkpt lat="6.596869" lon="633.0"><ele></ele><time>2014-5-26T18:5:24Z</time></trkpt>
<trkpt lat="6.596932" lon="633.0"><ele></ele><time>2014-5-26T18:5:27Z</time></trkpt>
<trkpt lat="6.596997" lon="634.0"><ele></ele><time>2014-5-26T18:5:30Z</time></trkpt>
<trkpt lat="6.597063" lon="634.0"><ele></ele><time>2014-5-26T18:5:33Z</time></trkpt>
<trkpt lat="6.597131" lon="634.0"><ele></ele><time>2014-5-26T18:5:36Z</time></trkpt>
<trkpt lat="6.597204" lon="634.0"><ele></ele><time>2014-5-26T18:5:39Z</time></trkpt>
<trkpt lat="6.597280" lon="634.0"><ele></ele><time>2014-5-26T18:5:42Z</time></trkpt>
<trkpt lat="6.597356" lon="635.0"><ele></ele><time>2014-5-26T18:5:45Z</time></trkpt>
<trkpt lat="6.597434" lon="635.0"><ele></ele><time>2014-5-26T18:5:48Z</time></trkpt>
<trkpt lat="6.597510" lon="635.0"><ele></ele><time>2014-5-26T18:5:51Z</time></trkpt>
<trkpt lat="6.597589" lon="635.0"><ele></ele><time>2014-5-26T18:5:54Z</time></trkpt>
<trkpt lat="6.597672" lon="635.0"><ele></ele><time>2014-5-26T18:5:57Z</time></trkpt>
<trkpt lat="6.597758" lon="636.0"><ele></ele><time>2014-5-26T18:6:0Z</time></trkpt>
<trkpt lat="6.597854" lon="636.0"><ele></ele><time>2014-5-26T18:6:3Z</time></trkpt>
<trkpt lat="6.597953" lon="636.0"><ele></ele><time>2014-5-26T18:6:6Z</time></trkpt>
<trkpt lat="6.598053" lon="636.0"><ele></ele><time>2014-5-26T18:6:9Z</time></trkpt>
<trkpt lat="6.598143" lon="636.0"><ele></ele><time>2014-5-26T18:6:12Z</time></trkpt>
<trkpt lat="6.598233" lon="637.0"><ele></ele><time>2014-5-26T18:6:15Z</time></trkpt>
<trkpt lat="6.598319" lon="637.0"><ele></ele><time>2014-5-26T18:6:18Z</time></trkpt>
<trkpt lat="6.598406" lon="637.0"><ele></ele><time>2014-5-26T18:6:21Z</time></trkpt>
<trkpt lat="6.598491" lon="637.0"><ele></ele><time>2014-5-26T18:6:24Z</time></trkpt>
<trkpt lat="6.598553" lon="637.0"><ele></ele><time>2014-5-26T18:6:27Z</time></trkpt>
<trkpt lat="6.598614" lon="637.0"><ele></ele><time>2014-5-26T18:6:30Z</time></trkpt>
<trkpt lat="6.598666" lon="637.0"><ele></ele><time>2014-5-26T18:6:33Z</time></trkpt>
<trkpt lat="6.598715" lon="637.0"><ele></ele><time>2014-5-26T18:6:36Z</time></trkpt>
<trkpt lat="6.598761" lon="637.0"><ele></ele><time>2014-5-26T18:6:39Z</time></trkpt>
<trkpt lat="6.598804" lon="638.0"><ele></ele><time>2014-5-26T18:6:42Z</time></trkpt>
<trkpt lat="6.598840" lon="638.0"><ele></ele><time>2014-5-26T18:6:45Z</time></trkpt>
<trkpt lat="6.598873" lon="638.0"><ele></ele><time>2014-5-26T18:6:48Z</time></trkpt>
<trkpt lat="6.598905" lon="638.0"><ele></ele><time>2014-5-26T18:6:51Z</time></trkpt>
<trkpt lat="6.598934" lon="638.0"><ele></ele><time>2014-5-26T18:6:54Z</time></trkpt>
<trkpt lat="6.598960" lon="637.0"><ele></ele><time>2014-5-26T18:6:57Z</time></trkpt>
<trkpt lat="6.598989" lon="637.0"><ele></ele><time>2014-5-26T18:7:0Z</time></trkpt>
<trkpt lat="6.599021" lon="637.0"><ele></ele><time>2014-5-26T18:7:3Z</time></trkpt>
<trkpt lat="6.599059" lon="637.0"><ele></ele><time>2014-5-26T18:7:6Z</time></trkpt>
<trkpt lat="6.599102" lon="637.0"><ele></ele><time>2014-5-26T18:7:9Z</time></trkpt>
<trkpt lat="6.599139" lon="637.0"><ele></ele><time>2014-5-26T18:7:12Z</time></trkpt>
<trkpt lat="6.599168" lon="637.0"><ele></ele><time>2014-5-26T18:7:15Z</time></trkpt>
<trkpt lat="6.599192" lon="637.0"><ele></ele><time>2014-5-26T18:7:18Z</time></trkpt>
<trkpt lat="6.599215" lon="638.0"><ele></ele><time>2014-5-26T18:7:21Z</time></trkpt>
<trkpt lat="6.599241" lon="639.0"><ele></ele><time>2014-5-26T18:7:24Z</time></trkpt>
<trkpt lat="6.599270" lon="639.0"><ele></ele><time>2014-5-26T18:7:27Z</time></trkpt>
<trkpt lat="6.599304" lon="639.0"><ele></ele><time>2014-5-26T18:7:30Z</time></trkpt>
<trkpt lat="6.599339" lon="639.0"><ele></ele><time>2014-5-26T18:7:33Z</time></trkpt>
<trkpt lat="6.599387" lon="640.0"><ele></ele><time>2014-5-26T18:7:36Z</time></trkpt>
<trkpt lat="6.599438" lon="640.0"><ele></ele><time>2014-5-26T18:7:39Z</time></trkpt>
<trkpt lat="6.599495" lon="641.0"><ele></ele><time>2014-5-26T18:7:42Z</time></trkpt>
<trkpt lat="6.599557" lon="641.0"><ele></ele><time>2014-5-26T18:7:45Z</time></trkpt>
<trkpt lat="6.599624" lon="641.0"><ele></ele><time>2014-5-26T18:7:48Z</time></trkpt>
<trkpt lat="6.599695" lon="642.0"><ele></ele><time>2014-5-26T18:7:51Z</time></trkpt>
<trkpt lat="6.599776" lon="642.0"><ele></ele><time>2014-5-26T18:7:54Z</time></trkpt>
<trkpt lat="6.599860" lon="642.0"><ele></ele><time>2014-5-26T18:7:57Z</time></trkpt>
<trkpt lat="6.599943" lon="642.0"><ele></ele><time>2014-5-26T18:8:0Z</time></trkpt>
<trkpt lat="6.600027" lon="643.0"><ele></ele><time>2014-5-26T18:8:3Z</time></trkpt>
<trkpt lat="6.600105" lon="643.0"><ele></ele><time>2014-5-26T18:8:6Z</time></trkpt>
<trkpt lat="6.600171" lon="643.0"><ele></ele><time>2014-5-26T18:8:9Z</time></trkpt>
<trkpt lat="6.600205" lon="643.0"><ele></ele><time>2014-5-26T18:8:12Z</time></trkpt>
<trkpt lat="6.600214" lon="643.0"><ele></ele><time>2014-5-26T18:8:15Z</time></trkpt>
<trkpt lat="6.600206" lon="643.0"><ele></ele><time>2014-5-26T18:8:18Z</time></trkpt>
<trkpt lat="6.600187" lon="644.0"><ele></ele><time>2014-5-26T18:8:21Z</time></trkpt>
<trkpt lat="6.600167" lon="644.0"><ele></ele><time>2014-5-26T18:8:24Z</time></trkpt>
<trkpt lat="6.600146" lon="643.0"><ele></ele><time>2014-5-26T18:8:27Z</time></trkpt>
<trkpt lat="6.600146" lon="643.0"><ele></ele><time>2014-5-26T18:8:30Z</time></trkpt>
<trkpt lat="6.599947" lon="645.0"><ele></ele><time>2014-5-26T18:8:33Z</time></trkpt>
<trkpt lat="6.599923" lon="645.0"><ele></ele><time>2014-5-26T18:8:36Z</time></trkpt>
<trkpt lat="6.599902" lon="645.0"><ele></ele><time>2014-5-26T18:8:39Z</time></trkpt>
<trkpt lat="6.599895" lon="645.0"><ele></ele><time>2014-5-26T18:8:42Z</time></trkpt>
<trkpt lat="6.599910" lon="646.0"><ele></ele><time>2014-5-26T18:8:45Z</time></trkpt>
<trkpt lat="6.599949" lon="646.0"><ele></ele><time>2014-5-26T18:8:48Z</time></trkpt>
<trkpt lat="6.600000" lon="646.0"><ele></ele><time>2014-5-26T18:8:51Z</time></trkpt>
<trkpt lat="6.600086" lon="646.0"><ele></ele><time>2014-5-26T18:8:54Z</time></trkpt>
<trkpt lat="6.600157" lon="646.0"><ele></ele><time>2014-5-26T18:8:57Z</time></trkpt>
<trkpt lat="6.600217" lon="646.0"><ele></ele><time>2014-5-26T18:9:0Z</time></trkpt>
<trkpt lat="6.600274" lon="646.0"><ele></ele><time>2014-5-26T18:9:3Z</time></trkpt>
<trkpt lat="6.600340" lon="646.0"><ele></ele><time>2014-5-26T18:9:6Z</time></trkpt>
<trkpt lat="6.600403" lon="645.0"><ele></ele><time>2014-5-26T18:9:9Z</time></trkpt>
<trkpt lat="6.600466" lon="645.0"><ele></ele><time>2014-5-26T18:9:12Z</time></trkpt>
<trkpt lat="6.600528" lon="644.0"><ele></ele><time>2014-5-26T18:9:15Z</time></trkpt>
<trkpt lat="6.600591" lon="643.0"><ele></ele><time>2014-5-26T18:9:18Z</time></trkpt>
<trkpt lat="6.600655" lon="643.0"><ele></ele><time>2014-5-26T18:9:21Z</time></trkpt>
<trkpt lat="6.600721" lon="644.0"><ele></ele><time>2014-5-26T18:9:24Z</time></trkpt>
<trkpt lat="6.600784" lon="644.0"><ele></ele><time>2014-5-26T18:9:27Z</time></trkpt>
<trkpt lat="6.600846" lon="645.0"><ele></ele><time>2014-5-26T18:9:30Z</time></trkpt>
<trkpt lat="6.600894" lon="645.0"><ele></ele><time>2014-5-26T18:9:33Z</time></trkpt>
<trkpt lat="6.600908" lon="644.0"><ele></ele><time>2014-5-26T18:9:36Z</time></trkpt>
<trkpt lat="6.600883" lon="644.0"><ele></ele><time>2014-5-26T18:9:39Z</time></trkpt>
<trkpt lat="6.600843" lon="644.0"><ele></ele><time>2014-5-26T18:9:42Z</time></trkpt>
<trkpt lat="6.600784" lon="645.0"><ele></ele><time>2014-5-26T18:9:45Z</time></trkpt>
<trkpt lat="6.600721" lon="645.0"><ele></ele><time>2014-5-26T18:9:48Z</time></trkpt>
<trkpt lat="6.600651" lon="645.0"><ele></ele><time>2014-5-26T18:9:51Z</time></trkpt>
<trkpt lat="6.600575" lon="644.0"><ele></ele><time>2014-5-26T18:9:54Z</time></trkpt>
<trkpt lat="6.600505" lon="644.0"><ele></ele><time>2014-5-26T18:9:57Z</time></trkpt>
<trkpt lat="6.600439" lon="644.0"><ele></ele><time>2014-5-26T18:10:0Z</time></trkpt>
<trkpt lat="6.600375" lon="645.0"><ele></ele><time>2014-5-26T18:10:3Z</time></trkpt>
<trkpt lat="6.600310" lon="645.0"><ele></ele><time>2014-5-26T18:10:6Z</time></trkpt>
<trkpt lat="6.600249" lon="645.0"><ele></ele><time>2014-5-26T18:10:9Z</time></trkpt>
<trkpt lat="6.600188" lon="646.0"><ele></ele><time>2014-5-26T18:10:12Z</time></trkpt>
<trkpt lat="6.600119" lon="646.0"><ele></ele><time>2014-5-26T18:10:15Z</time></trkpt>
<trkpt lat="6.600044" lon="646.0"><ele></ele><time>2014-5-26T18:10:18Z</time></trkpt>
<trkpt lat="6.599975" lon="647.0"><ele></ele><time>2014-5-26T18:10:21Z</time></trkpt>
<trkpt lat="6.599927" lon="647.0"><ele></ele><time>2014-5-26T18:10:24Z</time></trkpt>
<trkpt lat="6.599926" lon="647.0"><ele></ele><time>2014-5-26T18:10:27Z</time></trkpt>
<trkpt lat="6.600018" lon="647.0"><ele></ele><time>2014-5-26T18:10:30Z</time></trkpt>
<trkpt lat="6.600216" lon="648.0"><ele></ele><time>2014-5-26T18:10:33Z</time></trkpt>
<trkpt lat="6.600382" lon="648.0"><ele></ele><time>2014-5-26T18:10:36Z</time></trkpt>
<trkpt lat="6.600539" lon="648.0"><ele></ele><time>2014-5-26T18:10:39Z</time></trkpt>
<trkpt lat="6.600698" lon="648.0"><ele></ele><time>2014-5-26T18:10:42Z</time></trkpt>
<trkpt lat="6.600869" lon="649.0"><ele></ele><time>2014-5-26T18:10:45Z</time></trkpt>
<trkpt lat="6.601038" lon="649.0"><ele></ele><time>2014-5-26T18:10:48Z</time></trkpt>
<trkpt lat="6.601194" lon="649.0"><ele></ele><time>2014-5-26T18:10:51Z</time></trkpt>
<trkpt lat="6.601335" lon="649.0"><ele></ele><time>2014-5-26T18:10:54Z</time></trkpt>
<trkpt lat="6.601446" lon="649.0"><ele></ele><time>2014-5-26T18:10:57Z</time></trkpt>
<trkpt lat="6.601542" lon="650.0"><ele></ele><time>2014-5-26T18:11:0Z</time></trkpt>
<trkpt lat="6.601649" lon="650.0"><ele></ele><time>2014-5-26T18:11:3Z</time></trkpt>
<trkpt lat="6.601764" lon="650.0"><ele></ele><time>2014-5-26T18:11:6Z</time></trkpt>
<trkpt lat="6.601888" lon="650.0"><ele></ele><time>2014-5-26T18:11:9Z</time></trkpt>
<trkpt lat="6.602018" lon="651.0"><ele></ele><time>2014-5-26T18:11:12Z</time></trkpt>
<trkpt lat="6.602156" lon="651.0"><ele></ele><time>2014-5-26T18:11:15Z</time></trkpt>
<trkpt lat="6.602301" lon="650.0"><ele></ele><time>2014-5-26T18:11:18Z</time></trkpt>
<trkpt lat="6.602442" lon="650.0"><ele></ele><time>2014-5-26T18:11:21Z</time></trkpt>
<trkpt lat="6.602576" lon="650.0"><ele></ele><time>2014-5-26T18:11:24Z</time></trkpt>
<trkpt lat="6.602708" lon="650.0"><ele></ele><time>2014-5-26T18:11:27Z</time></trkpt>
<trkpt lat="6.602841" lon="650.0"><ele></ele><time>2014-5-26T18:11:30Z</time></trkpt>
<trkpt lat="6.602940" lon="650.0"><ele></ele><time>2014-5-26T18:11:33Z</time></trkpt>
<trkpt lat="6.602970" lon="650.0"><ele></ele><time>2014-5-26T18:11:36Z</time></trkpt>
<trkpt lat="6.603013" lon="651.0"><ele></ele><time>2014-5-26T18:11:39Z</time></trkpt>
<trkpt lat="6.603076" lon="652.0"><ele></ele><time>2014-5-26T18:11:42Z</time></trkpt>
<trkpt lat="6.603284" lon="652.0"><ele></ele><time>2014-5-26T18:11:45Z</time></trkpt>
<trkpt lat="6.603404" lon="652.0"><ele></ele><time>2014-5-26T18:11:48Z</time></trkpt>
<trkpt lat="6.603520" lon="653.0"><ele></ele><time>2014-5-26T18:11:51Z</time></trkpt>
<trkpt lat="6.603627" lon="653.0"><ele></ele><time>2014-5-26T18:11:54Z</time></trkpt>
<trkpt lat="6.603726" lon="653.0"><ele></ele><time>2014-5-26T18:11:57Z</time></trkpt>
<trkpt lat="6.603824" lon="654.0"><ele></ele><time>2014-5-26T18:12:0Z</time></trkpt>
<trkpt lat="6.603926" lon="654.0"><ele></ele><time>2014-5-26T18:12:3Z</time></trkpt>
<trkpt lat="6.604029" lon="653.0"><ele></ele><time>2014-5-26T18:12:6Z</time></trkpt>
<trkpt lat="6.604132" lon="653.0"><ele></ele><time>2014-5-26T18:12:9Z</time></trkpt>
<trkpt lat="6.604230" lon="654.0"><ele></ele><time>2014-5-26T18:12:12Z</time></trkpt>
<trkpt lat="6.604321" lon="654.0"><ele></ele><time>2014-5-26T18:12:15Z</time></trkpt>
<trkpt lat="6.604409" lon="654.0"><ele></ele><time>2014-5-26T18:12:18Z</time></trkpt>
<trkpt lat="6.604495" lon="654.0"><ele></ele><time>2014-5-26T18:12:21Z</time></trkpt>
<trkpt lat="6.604577" lon="654.0"><ele></ele><time>2014-5-26T18:12:24Z</time></trkpt>
<trkpt lat="6.604653" lon="654.0"><ele></ele><time>2014-5-26T18:12:27Z</time></trkpt>
<trkpt lat="6.604715" lon="653.0"><ele></ele><time>2014-5-26T18:12:30Z</time></trkpt>
<trkpt lat="6.604784" lon="654.0"><ele></ele><time>2014-5-26T18:12:33Z</time></trkpt>
<trkpt lat="6.604860" lon="654.0"><ele></ele><time>2014-5-26T18:12:36Z</time></trkpt>
<trkpt lat="6.604941" lon="654.0"><ele></ele><time>2014-5-26T18:12:39Z</time></trkpt>
<trkpt lat="6.605021" lon="653.0"><ele></ele><time>2014-5-26T18:12:42Z</time></trkpt>
<trkpt lat="6.605096" lon="653.0"><ele></ele><time>2014-5-26T18:12:45Z</time></trkpt>
<trkpt lat="6.605164" lon="652.0"><ele></ele><time>2014-5-26T18:12:48Z</time></trkpt>
<trkpt lat="6.605214" lon="652.0"><ele></ele><time>2014-5-26T18:12:51Z</time></trkpt>
<trkpt lat="6.605265" lon="653.0"><ele></ele><time>2014-5-26T18:12:54Z</time></trkpt>
<trkpt lat="6.605312" lon="653.0"><ele></ele><time>2014-5-26T18:12:57Z</time></trkpt>
<trkpt lat="6.605349" lon="653.0"><ele></ele><time>2014-5-26T18:13:0Z</time></trkpt>
<trkpt lat="6.605378" lon="652.0"><ele></ele><time>2014-5-26T18:13:3Z</time></trkpt>
<trkpt lat="6.605407" lon="652.0"><ele></ele><time>2014-5-26T18:13:6Z</time></trkpt>
<trkpt lat="6.605433" lon="652.0"><ele></ele><time>2014-5-26T18:13:9Z</time></trkpt>
<trkpt lat="6.605451" lon="652.0"><ele></ele><time>2014-5-26T18:13:12Z</time></trkpt>
<trkpt lat="6.605457" lon="651.0"><ele></ele><time>2014-5-26T18:13:15Z</time></trkpt>
<trkpt lat="6.605457" lon="651.0"><ele></ele><time>2014-5-26T18:13:18Z</time></trkpt>
<trkpt lat="6.605436" lon="654.0"><ele></ele><time>2014-5-26T18:13:21Z</time></trkpt>
<trkpt lat="6.605377" lon="654.0"><ele></ele><time>2014-5-26T18:13:24Z</time></trkpt>
<trkpt lat="6.605353" lon="654.0"><ele></ele><time>2014-5-26T18:13:27Z</time></trkpt>
<trkpt lat="6.605342" lon="655.0"><ele></ele><time>2014-5-26T18:13:30Z</time></trkpt>
<trkpt lat="6.605341" lon="655.0"><ele></ele><time>2014-5-26T18:13:33Z</time></trkpt>
<trkpt lat="6.605343" lon="655.0"><ele></ele><time>2014-5-26T18:13:36Z</time></trkpt>
<trkpt lat="6.605351" lon="655.0"><ele></ele><time>2014-5-26T18:13:39Z</time></trkpt>
<trkpt lat="6.605360" lon="654.0"><ele></ele><time>2014-5-26T18:13:42Z</time></trkpt>
<trkpt lat="6.605361" lon="654.0"><ele></ele><time>2014-5-26T18:13:45Z</time></trkpt>
<trkpt lat="6.605363" lon="654.0"><ele></ele><time>2014-5-26T18:13:48Z</time></trkpt>
<trkpt lat="6.605398" lon="654.0"><ele></ele><time>2014-5-26T18:13:51Z</time></trkpt>
<trkpt lat="6.605483" lon="655.0"><ele></ele><time>2014-5-26T18:13:54Z</time></trkpt>
<trkpt lat="6.605587" lon="655.0"><ele></ele><time>2014-5-26T18:13:57Z</time></trkpt>
<trkpt lat="6.605736" lon="654.0"><ele></ele><time>2014-5-26T18:14:0Z</time></trkpt>
<trkpt lat="6.605859" lon="654.0"><ele></ele><time>2014-5-26T18:14:3Z</time></trkpt>
<trkpt lat="6.605913" lon="654.0"><ele></ele><time>2014-5-26T18:14:6Z</time></trkpt>
<trkpt lat="6.605965" lon="654.0"><ele></ele><time>2014-5-26T18:14:9Z</time></trkpt>
<trkpt lat="6.606014" lon="654.0"><ele></ele><time>2014-5-26T18:14:12Z</time></trkpt>
<trkpt lat="6.606083" lon="655.0"><ele></ele><time>2014-5-26T18:14:15Z</time></trkpt>
<trkpt lat="6.606167" lon="655.0"><ele></ele><time>2014-5-26T18:14:18Z</time></trkpt>
<trkpt lat="6.606289" lon="655.0"><ele></ele><time>2014-5-26T18:14:21Z</time></trkpt>
<trkpt lat="6.606426" lon="656.0"><ele></ele><time>2014-5-26T18:14:24Z</time></trkpt>
<trkpt lat="6.606559" lon="656.0"><ele></ele><time>2014-5-26T18:14:27Z</time></trkpt>
<trkpt lat="6.606687" lon="656.0"><ele></ele><time>2014-5-26T18:14:30Z</time></trkpt>
<trkpt lat="6.606822" lon="656.0"><ele></ele><time>2014-5-26T18:14:33Z</time></trkpt>
<trkpt lat="6.606952" lon="657.0"><ele></ele><time>2014-5-26T18:14:36Z</time></trkpt>
<trkpt lat="6.607080" lon="656.0"><ele></ele><time>2014-5-26T18:14:39Z</time></trkpt>
<trkpt lat="6.607198" lon="657.0"><ele></ele><time>2014-5-26T18:14:42Z</time></trkpt>
<trkpt lat="6.607311" lon="657.0"><ele></ele><time>2014-5-26T18:14:45Z</time></trkpt>
<trkpt lat="6.607424" lon="658.0"><ele></ele><time>2014-5-26T18:14:48Z</time></trkpt>
<trkpt lat="6.607530" lon="658.0"><ele></ele><time>2014-5-26T18:14:51Z</time></trkpt>
<trkpt lat="6.607646" lon="658.0"><ele></ele><time>2014-5-26T18:14:54Z</time></trkpt>
<trkpt lat="6.607775" lon="657.0"><ele></ele><time>2014-5-26T18:14:57Z</time></trkpt>
<trkpt lat="6.607901" lon="657.0"><ele></ele><time>2014-5-26T18:15:0Z</time></trkpt>
<trkpt lat="6.608024" lon="657.0"><ele></ele><time>2014-5-26T18:15:3Z</time></trkpt>
<trkpt lat="6.608136" lon="656.0"><ele></ele><time>2014-5-26T18:15:6Z</time></trkpt>
<trkpt lat="6.608223" lon="656.0"><ele></ele><time>2014-5-26T18:15:9Z</time></trkpt>
<trkpt lat="6.608258" lon="656.0"><ele></ele><time>2014-5-26T18:15:12Z</time></trkpt>
<trkpt lat="6.608284" lon="656.0"><ele></ele><time>2014-5-26T18:15:15Z</time></trkpt>
<trkpt lat="6.608313" lon="656.0"><ele></ele><time>2014-5-26T18:15:18Z</time></trkpt>
<trkpt lat="6.608367" lon="655.0"><ele></ele><time>2014-5-26T18:15:21Z</time></trkpt>
<trkpt lat="6.608442" lon="655.0"><ele></ele><time>2014-5-26T18:15:24Z</time></trkpt>
<trkpt lat="6.608524" lon="655.0"><ele></ele><time>2014-5-26T18:15:27Z</time></trkpt>
<trkpt lat="6.608612" lon="655.0"><ele></ele><time>2014-5-26T18:15:30Z</time></trkpt>
<trkpt lat="6.608704" lon="655.0"><ele></ele><time>2014-5-26T18:15:33Z</time></trkpt>
<trkpt lat="6.608806" lon="656.0"><ele></ele><time>2014-5-26T18:15:36Z</time></trkpt>
<trkpt lat="6.608921" lon="656.0"><ele></ele><time>2014-5-26T18:15:39Z</time></trkpt>
<trkpt lat="6.609048" lon="657.0"><ele></ele><time>2014-5-26T18:15:42Z</time></trkpt>
<trkpt lat="6.609177" lon="658.0"><ele></ele><time>2014-5-26T18:15:45Z</time></trkpt>
<trkpt lat="6.609303" lon="657.0"><ele></ele><time>2014-5-26T18:15:48Z</time></trkpt>
<trkpt lat="6.609432" lon="658.0"><ele></ele><time>2014-5-26T18:15:51Z</time></trkpt>
<trkpt lat="6.609557" lon="657.0"><ele></ele><time>2014-5-26T18:15:54Z</time></trkpt>
<trkpt lat="6.609684" lon="658.0"><ele></ele><time>2014-5-26T18:15:57Z</time></trkpt>
<trkpt lat="6.609813" lon="658.0"><ele></ele><time>2014-5-26T18:16:0Z</time></trkpt>
<trkpt lat="6.609936" lon="658.0"><ele></ele><time>2014-5-26T18:16:3Z</time></trkpt>
<trkpt lat="6.610063" lon="659.0"><ele></ele><time>2014-5-26T18:16:6Z</time></trkpt>
<trkpt lat="6.610179" lon="659.0"><ele></ele><time>2014-5-26T18:16:9Z</time></trkpt>
<trkpt lat="6.610292" lon="659.0"><ele></ele><time>2014-5-26T18:16:12Z</time></trkpt>
<trkpt lat="6.610400" lon="659.0"><ele></ele><time>2014-5-26T18:16:15Z</time></trkpt>
<trkpt lat="6.610495" lon="659.0"><ele></ele><time>2014-5-26T18:16:18Z</time></trkpt>
<trkpt lat="6.610580" lon="659.0"><ele></ele><time>2014-5-26T18:16:21Z</time></trkpt>
<trkpt lat="6.610649" lon="659.0"><ele></ele><time>2014-5-26T18:16:24Z</time></trkpt>
<trkpt lat="6.610711" lon="660.0"><ele></ele><time>2014-5-26T18:16:27Z</time></trkpt>
<trkpt lat="6.610766" lon="660.0"><ele></ele><time>2014-5-26T18:16:30Z</time></trkpt>
<trkpt lat="6.610819" lon="661.0"><ele></ele><time>2014-5-26T18:16:33Z</time></trkpt>
<trkpt lat="6.610869" lon="662.0"><ele></ele><time>2014-5-26T18:16:36Z</time></trkpt>
<trkpt lat="6.610920" lon="662.0"><ele></ele><time>2014-5-26T18:16:39Z</time></trkpt>
<trkpt lat="6.610973" lon="663.0"><ele></ele><time>2014-5-26T18:16:42Z</time></trkpt>
<trkpt lat="6.611029" lon="664.0"><ele></ele><time>2014-5-26T18:16:45Z</time></trkpt>
<trkpt lat="6.611091" lon="666.0"><ele></ele><time>2014-5-26T18:16:48Z</time></trkpt>
<trkpt lat="6.611153" lon="667.0"><ele></ele><time>2014-5-26T18:16:51Z</time></trkpt>
<trkpt lat="6.611225" lon="668.0"><ele></ele><time>2014-5-26T18:16:54Z</time></trkpt>
<trkpt lat="6.611298" lon="668.0"><ele></ele><time>2014-5-26T18:16:57Z</time></trkpt>
<trkpt lat="6.611368" lon="669.0"><ele></ele><time>2014-5-26T18:17:0Z</time></trkpt>
<trkpt lat="6.611436" lon="669.0"><ele></ele><time>2014-5-26T18:17:3Z</time></trkpt>
<trkpt lat="6.611508" lon="669.0"><ele></ele><time>2014-5-26T18:17:6Z</time></trkpt>
<trkpt lat="6.611587" lon="670.0"><ele></ele><time>2014-5-26T18:17:9Z</time></trkpt>
<trkpt lat="6.611674" lon="671.0"><ele></ele><time>2014-5-26T18:17:12Z</time></trkpt>
<trkpt lat="6.611763" lon="671.0"><ele></ele><time>2014-5-26T18:17:15Z</time></trkpt>
<trkpt lat="6.611840" lon="670.0"><ele></ele><time>2014-5-26T18:17:18Z</time></trkpt>
<trkpt lat="6.611840" lon="670.0"><ele></ele><time>2014-5-26T18:17:21Z</time></trkpt>
<trkpt lat="6.612292" lon="671.0"><ele></ele><time>2014-5-26T18:17:24Z</time></trkpt>
<trkpt lat="6.612365" lon="673.0"><ele></ele><time>2014-5-26T18:17:27Z</time></trkpt>
<trkpt lat="6.612432" lon="673.0"><ele></ele><time>2014-5-26T18:17:30Z</time></trkpt>
<trkpt lat="6.612471" lon="673.0"><ele></ele><time>2014-5-26T18:17:33Z</time></trkpt>
<trkpt lat="6.612822" lon="679.0"><ele></ele><time>2014-5-26T18:17:36Z</time></trkpt>
<trkpt lat="6.612877" lon="680.0"><ele></ele><time>2014-5-26T18:17:39Z</time></trkpt>
<trkpt lat="6.612930" lon="682.0"><ele></ele><time>2014-5-26T18:17:42Z</time></trkpt>
<trkpt lat="6.612990" lon="682.0"><ele></ele><time>2014-5-26T18:17:45Z</time></trkpt>
<trkpt lat="6.613049" lon="683.0"><ele></ele><time>2014-5-26T18:17:48Z</time></trkpt>
<trkpt lat="6.613115" lon="684.0"><ele></ele><time>2014-5-26T18:17:51Z</time></trkpt>
<trkpt lat="6.613172" lon="684.0"><ele></ele><time>2014-5-26T18:17:54Z</time></trkpt>
<trkpt lat="6.613230" lon="684.0"><ele></ele><time>2014-5-26T18:17:57Z</time></trkpt>
<trkpt lat="6.613285" lon="684.0"><ele></ele><time>2014-5-26T18:18:0Z</time></trkpt>
<trkpt lat="6.613337" lon="684.0"><ele></ele><time>2014-5-26T18:18:3Z</time></trkpt>
<trkpt lat="6.613388" lon="685.0"><ele></ele><time>2014-5-26T18:18:6Z</time></trkpt>
<trkpt lat="6.613438" lon="685.0"><ele></ele><time>2014-5-26T18:18:9Z</time></trkpt>
<trkpt lat="6.613488" lon="685.0"><ele></ele><time>2014-5-26T18:18:12Z</time></trkpt>
<trkpt lat="6.613536" lon="686.0"><ele></ele><time>2014-5-26T18:18:15Z</time></trkpt>
<trkpt lat="6.613583" lon="686.0"><ele></ele><time>2014-5-26T18:18:18Z</time></trkpt>
<trkpt lat="6.613631" lon="686.0"><ele></ele><time>2014-5-26T18:18:21Z</time></trkpt>
<trkpt lat="6.613679" lon="686.0"><ele></ele><time>2014-5-26T18:18:24Z</time></trkpt>
<trkpt lat="6.613725" lon="686.0"><ele></ele><time>2014-5-26T18:18:27Z</time></trkpt>
<trkpt lat="6.613771" lon="686.0"><ele></ele><time>2014-5-26T18:18:30Z</time></trkpt>
<trkpt lat="6.613815" lon="686.0"><ele></ele><time>2014-5-26T18:18:33Z</time></trkpt>
<trkpt lat="6.613858" lon="687.0"><ele></ele><time>2014-5-26T18:18:36Z</time></trkpt>
<trkpt lat="6.613902" lon="687.0"><ele></ele><time>2014-5-26T18:18:39Z</time></trkpt>
<trkpt lat="6.613945" lon="687.0"><ele></ele><time>2014-5-26T18:18:42Z</time></trkpt>
<trkpt lat="6.613989" lon="687.0"><ele></ele><time>2014-5-26T18:18:45Z</time></trkpt>
<trkpt lat="6.614034" lon="687.0"><ele></ele><time>2014-5-26T18:18:48Z</time></trkpt>
<trkpt lat="6.614079" lon="688.0"><ele></ele><time>2014-5-26T18:18:51Z</time></trkpt>
<trkpt lat="6.614125" lon="689.0"><ele></ele><time>2014-5-26T18:18:54Z</time></trkpt>
<trkpt lat="6.614170" lon="689.0"><ele></ele><time>2014-5-26T18:18:57Z</time></trkpt>
<trkpt lat="6.614214" lon="689.0"><ele></ele><time>2014-5-26T18:19:0Z</time></trkpt>
<trkpt lat="6.614256" lon="689.0"><ele></ele><time>2014-5-26T18:19:3Z</time></trkpt>
<trkpt lat="6.614295" lon="689.0"><ele></ele><time>2014-5-26T18:19:6Z</time></trkpt>
<trkpt lat="6.614332" lon="690.0"><ele></ele><time>2014-5-26T18:19:9Z</time></trkpt>
<trkpt lat="6.614368" lon="690.0"><ele></ele><time>2014-5-26T18:19:12Z</time></trkpt>
<trkpt lat="6.614402" lon="690.0"><ele></ele><time>2014-5-26T18:19:15Z</time></trkpt>
<trkpt lat="6.614445" lon="691.0"><ele></ele><time>2014-5-26T18:19:18Z</time></trkpt>
<trkpt lat="6.614489" lon="692.0"><ele></ele><time>2014-5-26T18:19:21Z</time></trkpt>
<trkpt lat="6.614535" lon="692.0"><ele></ele><time>2014-5-26T18:19:24Z</time></trkpt>
<trkpt lat="6.614584" lon="694.0"><ele></ele><time>2014-5-26T18:19:27Z</time></trkpt>
<trkpt lat="6.614627" lon="695.0"><ele></ele><time>2014-5-26T18:19:30Z</time></trkpt>
<trkpt lat="6.614687" lon="695.0"><ele></ele><time>2014-5-26T18:19:33Z</time></trkpt>
<trkpt lat="6.614755" lon="696.0"><ele></ele><time>2014-5-26T18:19:36Z</time></trkpt>
<trkpt lat="6.614830" lon="696.0"><ele></ele><time>2014-5-26T18:19:39Z</time></trkpt>
<trkpt lat="6.614939" lon="696.0"><ele></ele><time>2014-5-26T18:19:42Z</time></trkpt>
<trkpt lat="6.615035" lon="697.0"><ele></ele><time>2014-5-26T18:19:45Z</time></trkpt>
<trkpt lat="6.615133" lon="697.0"><ele></ele><time>2014-5-26T18:19:48Z</time></trkpt>
<trkpt lat="6.615231" lon="697.0"><ele></ele><time>2014-5-26T18:19:51Z</time></trkpt>
<trkpt lat="6.615328" lon="698.0"><ele></ele><time>2014-5-26T18:19:54Z</time></trkpt>
<trkpt lat="6.615420" lon="698.0"><ele></ele><time>2014-5-26T18:19:57Z</time></trkpt>
<trkpt lat="6.615508" lon="698.0"><ele></ele><time>2014-5-26T18:20:0Z</time></trkpt>
<trkpt lat="6.615595" lon="698.0"><ele></ele><time>2014-5-26T18:20:3Z</time></trkpt>
<trkpt lat="6.615677" lon="697.0"><ele></ele><time>2014-5-26T18:20:6Z</time></trkpt>
<trkpt lat="6.615758" lon="698.0"><ele></ele><time>2014-5-26T18:20:9Z</time></trkpt>
<trkpt lat="6.615840" lon="698.0"><ele></ele><time>2014-5-26T18:20:12Z</time></trkpt>
<trkpt lat="6.615925" lon="697.0"><ele></ele><time>2014-5-26T18:20:15Z</time></trkpt>
<trkpt lat="6.616076" lon="697.0"><ele></ele><time>2014-5-26T18:20:18Z</time></trkpt>
<trkpt lat="6.616233" lon="696.0"><ele></ele><time>2014-5-26T18:20:21Z</time></trkpt>
<trkpt lat="6.616416" lon="696.0"><ele></ele><time>2014-5-26T18:20:24Z</time></trkpt>
<trkpt lat="6.616586" lon="696.0"><ele></ele><time>2014-5-26T18:20:27Z</time></trkpt>
<trkpt lat="6.616732" lon="695.0"><ele></ele><time>2014-5-26T18:20:30Z</time></trkpt>
<trkpt lat="6.616859" lon="695.0"><ele></ele><time>2014-5-26T18:20:33Z</time></trkpt>
<trkpt lat="6.616976" lon="696.0"><ele></ele><time>2014-5-26T18:20:36Z</time></trkpt>
<trkpt lat="6.617089" lon="696.0"><ele></ele><time>2014-5-26T18:20:39Z</time></trkpt>
<trkpt lat="6.617200" lon="697.0"><ele></ele><time>2014-5-26T18:20:42Z</time></trkpt>
<trkpt lat="6.617312" lon="698.0"><ele></ele><time>2014-5-26T18:20:45Z</time></trkpt>
<trkpt lat="6.617413" lon="698.0"><ele></ele><time>2014-5-26T18:20:48Z</time></trkpt>
<trkpt lat="6.617502" lon="699.0"><ele></ele><time>2014-5-26T18:20:51Z</time></trkpt>
<trkpt lat="6.617586" lon="700.0"><ele></ele><time>2014-5-26T18:20:54Z</time></trkpt>
<trkpt lat="6.617649" lon="700.0"><ele></ele><time>2014-5-26T18:20:57Z</time></trkpt>
<trkpt lat="6.618007" lon="706.0"><ele></ele><time>2014-5-26T18:21:0Z</time></trkpt>
<trkpt lat="6.618083" lon="707.0"><ele></ele><time>2014-5-26T18:21:3Z</time></trkpt>
<trkpt lat="6.618146" lon="707.0"><ele></ele><time>2014-5-26T18:21:6Z</time></trkpt>
<trkpt lat="6.618455" lon="711.0"><ele></ele><time>2014-5-26T18:21:9Z</time></trkpt>
<trkpt lat="6.618517" lon="711.0"><ele></ele><time>2014-5-26T18:21:12Z</time></trkpt>
<trkpt lat="6.618567" lon="711.0"><ele></ele><time>2014-5-26T18:21:15Z</time></trkpt>
<trkpt lat="6.618601" lon="711.0"><ele></ele><time>2014-5-26T18:21:18Z</time></trkpt>
<trkpt lat="6.618666" lon="713.0"><ele></ele><time>2014-5-26T18:21:21Z</time></trkpt>
<trkpt lat="6.618728" lon="713.0"><ele></ele><time>2014-5-26T18:21:24Z</time></trkpt>
<trkpt lat="6.618770" lon="713.0"><ele></ele><time>2014-5-26T18:21:27Z</time></trkpt>
<trkpt lat="6.618813" lon="713.0"><ele></ele><time>2014-5-26T18:21:30Z</time></trkpt>
<trkpt lat="6.618853" lon="713.0"><ele></ele><time>2014-5-26T18:21:33Z</time></trkpt>
<trkpt lat="6.618899" lon="713.0"><ele></ele><time>2014-5-26T18:21:36Z</time></trkpt>
<trkpt lat="6.618964" lon="714.0"><ele></ele><time>2014-5-26T18:21:39Z</time></trkpt>
<trkpt lat="6.619041" lon="714.0"><ele></ele><time>2014-5-26T18:21:42Z</time></trkpt>
<trkpt lat="6.619118" lon="714.0"><ele></ele><time>2014-5-26T18:21:45Z</time></trkpt>
<trkpt lat="6.619195" lon="714.0"><ele></ele><time>2014-5-26T18:21:48Z</time></trkpt>
<trkpt lat="6.619272" lon="715.0"><ele></ele><time>2014-5-26T18:21:51Z</time></trkpt>
<trkpt lat="6.619344" lon="715.0"><ele></ele><time>2014-5-26T18:21:54Z</time></trkpt>
<trkpt lat="6.619413" lon="716.0"><ele></ele><time>2014-5-26T18:21:57Z</time></trkpt>
<trkpt lat="6.619477" lon="717.0"><ele></ele><time>2014-5-26T18:22:0Z</time></trkpt>
<trkpt lat="6.619523" lon="717.0"><ele></ele><time>2014-5-26T18:22:3Z</time></trkpt>
<trkpt lat="6.619523" lon="717.0"><ele></ele><time>2014-5-26T18:22:6Z</time></trkpt>
<trkpt lat="6.619720" lon="723.0"><ele></ele><time>2014-5-26T18:22:9Z</time></trkpt>
<trkpt lat="6.619773" lon="722.0"><ele></ele><time>2014-5-26T18:22:12Z</time></trkpt>
<trkpt lat="6.619802" lon="722.0"><ele></ele><time>2014-5-26T18:22:15Z</time></trkpt>
<trkpt lat="6.620221" lon="721.0"><ele></ele><time>2014-5-26T18:22:18Z</time></trkpt>
<trkpt lat="6.620351" lon="721.0"><ele></ele><time>2014-5-26T18:22:21Z</time></trkpt>
<trkpt lat="6.620507" lon="721.0"><ele></ele><time>2014-5-26T18:22:24Z</time></trkpt>
<trkpt lat="6.620566" lon="721.0"><ele></ele><time>2014-5-26T18:22:27Z</time></trkpt>
<trkpt lat="6.620604" lon="721.0"><ele></ele><time>2014-5-26T18:22:30Z</time></trkpt>
<trkpt lat="6.620604" lon="721.0"><ele></ele><time>2014-5-26T18:22:33Z</time></trkpt>
<trkpt lat="6.620609" lon="707.0"><ele></ele><time>2014-5-26T18:22:36Z</time></trkpt>
<trkpt lat="6.620608" lon="707.0"><ele></ele><time>2014-5-26T18:22:39Z</time></trkpt>
<trkpt lat="6.620608" lon="707.0"><ele></ele><time>2014-5-26T18:22:42Z</time></trkpt>
<trkpt lat="6.620851" lon="719.0"><ele></ele><time>2014-5-26T18:22:45Z</time></trkpt>
<trkpt lat="6.620916" lon="719.0"><ele></ele><time>2014-5-26T18:22:48Z</time></trkpt>
<trkpt lat="6.620976" lon="721.0"><ele></ele><time>2014-5-26T18:22:51Z</time></trkpt>
<trkpt lat="6.621036" lon="722.0"><ele></ele><time>2014-5-26T18:22:54Z</time></trkpt>
<trkpt lat="6.621085" lon="722.0"><ele></ele><time>2014-5-26T18:22:57Z</time></trkpt>
<trkpt lat="6.621127" lon="722.0"><ele></ele><time>2014-5-26T18:23:0Z</time></trkpt>
<trkpt lat="6.621163" lon="722.0"><ele></ele><time>2014-5-26T18:23:3Z</time></trkpt>
<trkpt lat="6.621180" lon="723.0"><ele></ele><time>2014-5-26T18:23:6Z</time></trkpt>
<trkpt lat="6.621200" lon="723.0"><ele></ele><time>2014-5-26T18:23:9Z</time></trkpt>
<trkpt lat="6.621203" lon="725.0"><ele></ele><time>2014-5-26T18:23:12Z</time></trkpt>
<trkpt lat="6.621241" lon="725.0"><ele></ele><time>2014-5-26T18:23:15Z</time></trkpt>
<trkpt lat="6.621280" lon="725.0"><ele></ele><time>2014-5-26T18:23:18Z</time></trkpt>
<trkpt lat="6.621307" lon="726.0"><ele></ele><time>2014-5-26T18:23:21Z</time></trkpt>
<trkpt lat="6.621362" lon="727.0"><ele></ele><time>2014-5-26T18:23:24Z</time></trkpt>
<trkpt lat="6.621371" lon="727.0"><ele></ele><time>2014-5-26T18:23:27Z</time></trkpt>
<trkpt lat="6.621426" lon="728.0"><ele></ele><time>2014-5-26T18:23:30Z</time></trkpt>
<trkpt lat="6.621462" lon="728.0"><ele></ele><time>2014-5-26T18:23:33Z</time></trkpt>
<trkpt lat="6.621499" lon="728.0"><ele></ele><time>2014-5-26T18:23:36Z</time></trkpt>
<trkpt lat="6.621518" lon="729.0"><ele></ele><time>2014-5-26T18:23:39Z</time></trkpt>
<trkpt lat="6.621678" lon="732.0"><ele></ele><time>2014-5-26T18:23:42Z</time></trkpt>
<trkpt lat="6.621720" lon="733.0"><ele></ele><time>2014-5-26T18:23:45Z</time></trkpt>
<trkpt lat="6.621746" lon="733.0"><ele></ele><time>2014-5-26T18:23:48Z</time></trkpt>
<trkpt lat="6.621889" lon="739.0"><ele></ele><time>2014-5-26T18:23:51Z</time></trkpt>
<trkpt lat="6.621939" lon="740.0"><ele></ele><time>2014-5-26T18:23:54Z</time></trkpt>
<trkpt lat="6.621987" lon="741.0"><ele></ele><time>2014-5-26T18:23:57Z</time></trkpt>
<trkpt lat="6.622045" lon="742.0"><ele></ele><time>2014-5-26T18:24:0Z</time></trkpt>
<trkpt lat="6.622126" lon="743.0"><ele></ele><time>2014-5-26T18:24:3Z</time></trkpt>
<trkpt lat="6.622203" lon="744.0"><ele></ele><time>2014-5-26T18:24:6Z</time></trkpt>
<trkpt lat="6.622262" lon="746.0"><ele></ele><time>2014-5-26T18:24:9Z</time></trkpt>
<trkpt lat="6.622302" lon="748.0"><ele></ele><time>2014-5-26T18:24:12Z</time></trkpt>
<trkpt lat="6.622321" lon="749.0"><ele></ele><time>2014-5-26T18:24:15Z</time></trkpt>
<trkpt lat="6.622322" lon="751.0"><ele></ele><time>2014-5-26T18:24:18Z</time></trkpt>
<trkpt lat="6.622312" lon="752.0"><ele></ele><time>2014-5-26T18:24:21Z</time></trkpt>
<trkpt lat="6.622301" lon="752.0"><ele></ele><time>2014-5-26T18:24:24Z</time></trkpt>
<trkpt lat="6.622291" lon="752.0"><ele></ele><time>2014-5-26T18:24:27Z</time></trkpt>
<trkpt lat="6.622274" lon="752.0"><ele></ele><time>2014-5-26T18:24:30Z</time></trkpt>
<trkpt lat="6.622251" lon="752.0"><ele></ele><time>2014-5-26T18:24:33Z</time></trkpt>
<trkpt lat="6.622222" lon="753.0"><ele></ele><time>2014-5-26T18:24:36Z</time></trkpt>
<trkpt lat="6.622185" lon="754.0"><ele></ele><time>2014-5-26T18:24:39Z</time></trkpt>
<trkpt lat="6.622135" lon="755.0"><ele></ele><time>2014-5-26T18:24:42Z</time></trkpt>
<trkpt lat="6.622025" lon="757.0"><ele></ele><time>2014-5-26T18:24:45Z</time></trkpt>
<trkpt lat="6.621934" lon="758.0"><ele></ele><time>2014-5-26T18:24:48Z</time></trkpt>
<trkpt lat="6.621887" lon="758.0"><ele></ele><time>2014-5-26T18:24:51Z</time></trkpt>
<trkpt lat="6.621856" lon="758.0"><ele></ele><time>2014-5-26T18:24:54Z</time></trkpt>
<trkpt lat="6.621881" lon="757.0"><ele></ele><time>2014-5-26T18:24:57Z</time></trkpt>
<trkpt lat="6.621929" lon="757.0"><ele></ele><time>2014-5-26T18:25:0Z</time></trkpt>
<trkpt lat="6.621963" lon="758.0"><ele></ele><time>2014-5-26T18:25:3Z</time></trkpt>
<trkpt lat="6.621950" lon="758.0"><ele></ele><time>2014-5-26T18:25:6Z</time></trkpt>
<trkpt lat="6.621945" lon="759.0"><ele></ele><time>2014-5-26T18:25:9Z</time></trkpt>
<trkpt lat="6.621935" lon="759.0"><ele></ele><time>2014-5-26T18:25:12Z</time></trkpt>
<trkpt lat="6.621970" lon="759.0"><ele></ele><time>2014-5-26T18:25:15Z</time></trkpt>
<trkpt lat="6.621975" lon="758.0"><ele></ele><time>2014-5-26T18:25:18Z</time></trkpt>
<trkpt lat="6.621944" lon="757.0"><ele></ele><time>2014-5-26T18:25:21Z</time></trkpt>
<trkpt lat="6.621883" lon="757.0"><ele></ele><time>2014-5-26T18:25:24Z</time></trkpt>
<trkpt lat="6.621869" lon="756.0"><ele></ele><time>2014-5-26T18:25:27Z</time></trkpt>
<trkpt lat="6.621845" lon="755.0"><ele></ele><time>2014-5-26T18:25:30Z</time></trkpt>
<trkpt lat="6.621903" lon="754.0"><ele></ele><time>2014-5-26T18:25:33Z</time></trkpt>
<trkpt lat="6.621936" lon="755.0"><ele></ele><time>2014-5-26T18:25:36Z</time></trkpt>
<trkpt lat="6.621924" lon="755.0"><ele></ele><time>2014-5-26T18:25:39Z</time></trkpt>
<trkpt lat="6.621820" lon="756.0"><ele></ele><time>2014-5-26T18:25:42Z</time></trkpt>
<trkpt lat="6.621522" lon="759.0"><ele></ele><time>2014-5-26T18:25:45Z</time></trkpt>
<trkpt lat="6.621295" lon="760.0"><ele></ele><time>2014-5-26T18:25:48Z</time></trkpt>
<trkpt lat="6.621091" lon="760.0"><ele></ele><time>2014-5-26T18:25:51Z</time></trkpt>
<trkpt lat="6.620898" lon="760.0"><ele></ele><time>2014-5-26T18:25:54Z</time></trkpt>
<trkpt lat="6.620631" lon="760.0"><ele></ele><time>2014-5-26T18:25:57Z</time></trkpt>
<trkpt lat="6.620384" lon="759.0"><ele></ele><time>2014-5-26T18:26:0Z</time></trkpt>
<trkpt lat="6.620248" lon="759.0"><ele></ele><time>2014-5-26T18:26:3Z</time></trkpt>
<trkpt lat="6.620090" lon="758.0"><ele></ele><time>2014-5-26T18:26:6Z</time></trkpt>
<trkpt lat="6.620087" lon="758.0"><ele></ele><time>2014-5-26T18:26:9Z</time></trkpt>
<trkpt lat="6.620076" lon="757.0"><ele></ele><time>2014-5-26T18:26:12Z</time></trkpt>
<trkpt lat="6.620034" lon="757.0"><ele></ele><time>2014-5-26T18:26:15Z</time></trkpt>
<trkpt lat="6.619978" lon="756.0"><ele></ele><time>2014-5-26T18:26:18Z</time></trkpt>
<trkpt lat="6.619918" lon="755.0"><ele></ele><time>2014-5-26T18:26:21Z</time></trkpt>
<trkpt lat="6.619845" lon="754.0"><ele></ele><time>2014-5-26T18:26:24Z</time></trkpt>
<trkpt lat="6.619778" lon="753.0"><ele></ele><time>2014-5-26T18:26:27Z</time></trkpt>
<trkpt lat="6.619725" lon="752.0"><ele></ele><time>2014-5-26T18:26:30Z</time></trkpt>
<trkpt lat="6.619696" lon="751.0"><ele></ele><time>2014-5-26T18:26:33Z</time></trkpt>
<trkpt lat="6.619813" lon="751.0"><ele></ele><time>2014-5-26T18:26:36Z</time></trkpt>
<trkpt lat="6.619934" lon="750.0"><ele></ele><time>2014-5-26T18:26:39Z</time></trkpt>
<trkpt lat="6.620066" lon="750.0"><ele></ele><time>2014-5-26T18:26:42Z</time></trkpt>
<trkpt lat="6.620066" lon="750.0"><ele></ele><time>2014-5-26T18:26:45Z</time></trkpt>
<trkpt lat="6.619928" lon="750.0"><ele></ele><time>2014-5-26T18:26:48Z</time></trkpt>
<trkpt lat="6.619716" lon="750.0"><ele></ele><time>2014-5-26T18:26:51Z</time></trkpt>
<trkpt lat="6.619471" lon="750.0"><ele></ele><time>2014-5-26T18:26:54Z</time></trkpt>
<trkpt lat="6.619373" lon="750.0"><ele></ele><time>2014-5-26T18:26:57Z</time></trkpt>
<trkpt lat="6.619374" lon="751.0"><ele></ele><time>2014-5-26T18:27:0Z</time></trkpt>
<trkpt lat="6.619384" lon="752.0"><ele></ele><time>2014-5-26T18:27:3Z</time></trkpt>
<trkpt lat="6.619397" lon="752.0"><ele></ele><time>2014-5-26T18:27:6Z</time></trkpt>
<trkpt lat="6.619404" lon="751.0"><ele></ele><time>2014-5-26T18:27:9Z</time></trkpt>
<trkpt lat="6.619372" lon="751.0"><ele></ele><time>2014-5-26T18:27:12Z</time></trkpt>
<trkpt lat="6.619346" lon="750.0"><ele></ele><time>2014-5-26T18:27:15Z</time></trkpt>
<trkpt lat="6.619343" lon="750.0"><ele></ele><time>2014-5-26T18:27:18Z</time></trkpt>
<trkpt lat="6.619416" lon="750.0"><ele></ele><time>2014-5-26T18:27:21Z</time></trkpt>
<trkpt lat="6.619473" lon="748.0"><ele></ele><time>2014-5-26T18:27:24Z</time></trkpt>
<trkpt lat="6.619446" lon="746.0"><ele></ele><time>2014-5-26T18:27:27Z</time></trkpt>
<trkpt lat="6.619370" lon="744.0"><ele></ele><time>2014-5-26T18:27:30Z</time></trkpt>
<trkpt lat="6.619299" lon="742.0"><ele></ele><time>2014-5-26T18:27:33Z</time></trkpt>
<trkpt lat="6.619188" lon="739.0"><ele></ele><time>2014-5-26T18:27:36Z</time></trkpt>
<trkpt lat="6.619131" lon="736.0"><ele></ele><time>2014-5-26T18:27:39Z</time></trkpt>
<trkpt lat="6.619090" lon="734.0"><ele></ele><time>2014-5-26T18:27:42Z</time></trkpt>
<trkpt lat="6.619044" lon="730.0"><ele></ele><time>2014-5-26T18:27:45Z</time></trkpt>
<trkpt lat="6.619020" lon="728.0"><ele></ele><time>2014-5-26T18:27:48Z</time></trkpt>
<trkpt lat="6.618999" lon="725.0"><ele></ele><time>2014-5-26T18:27:51Z</time></trkpt>
<trkpt lat="6.618977" lon="723.0"><ele></ele><time>2014-5-26T18:27:54Z</time></trkpt>
<trkpt lat="6.618939" lon="721.0"><ele></ele><time>2014-5-26T18:27:57Z</time></trkpt>
<trkpt lat="6.618908" lon="719.0"><ele></ele><time>2014-5-26T18:28:0Z</time></trkpt>
<trkpt lat="6.618871" lon="718.0"><ele></ele><time>2014-5-26T18:28:3Z</time></trkpt>
<trkpt lat="6.618845" lon="717.0"><ele></ele><time>2014-5-26T18:28:6Z</time></trkpt>
<trkpt lat="6.618838" lon="717.0"><ele></ele><time>2014-5-26T18:28:9Z</time></trkpt>
<trkpt lat="6.618811" lon="716.0"><ele></ele><time>2014-5-26T18:28:12Z</time></trkpt>
<trkpt lat="6.618766" lon="716.0"><ele></ele><time>2014-5-26T18:28:15Z</time></trkpt>
<trkpt lat="6.618385" lon="716.0"><ele></ele><time>2014-5-26T18:28:18Z</time></trkpt>
<trkpt lat="6.618124" lon="715.0"><ele></ele><time>2014-5-26T18:28:21Z</time></trkpt>
<trkpt lat="6.617842" lon="716.0"><ele></ele><time>2014-5-26T18:28:24Z</time></trkpt>
<trkpt lat="6.617578" lon="715.0"><ele></ele><time>2014-5-26T18:28:27Z</time></trkpt>
<trkpt lat="6.617315" lon="714.0"><ele></ele><time>2014-5-26T18:28:30Z</time></trkpt>
<trkpt lat="6.617047" lon="714.0"><ele></ele><time>2014-5-26T18:28:33Z</time></trkpt>
<trkpt lat="6.616793" lon="713.0"><ele></ele><time>2014-5-26T18:28:36Z</time></trkpt>
<trkpt lat="6.616656" lon="713.0"><ele></ele><time>2014-5-26T18:28:39Z</time></trkpt>
<trkpt lat="6.616472" lon="712.0"><ele></ele><time>2014-5-26T18:28:42Z</time></trkpt>
<trkpt lat="6.616357" lon="712.0"><ele></ele><time>2014-5-26T18:28:45Z</time></trkpt>
<trkpt lat="6.616253" lon="712.0"><ele></ele><time>2014-5-26T18:28:48Z</time></trkpt>
<trkpt lat="6.616155" lon="712.0"><ele></ele><time>2014-5-26T18:28:51Z</time></trkpt>
<trkpt lat="6.616030" lon="711.0"><ele></ele><time>2014-5-26T18:28:54Z</time></trkpt>
<trkpt lat="6.615899" lon="710.0"><ele></ele><time>2014-5-26T18:28:57Z</time></trkpt>
<trkpt lat="6.615752" lon="709.0"><ele></ele><time>2014-5-26T18:29:0Z</time></trkpt>
<trkpt lat="6.615587" lon="708.0"><ele></ele><time>2014-5-26T18:29:3Z</time></trkpt>
<trkpt lat="6.615405" lon="707.0"><ele></ele><time>2014-5-26T18:29:6Z</time></trkpt>
<trkpt lat="6.615211" lon="707.0"><ele></ele><time>2014-5-26T18:29:9Z</time></trkpt>
<trkpt lat="6.614998" lon="707.0"><ele></ele><time>2014-5-26T18:29:12Z</time></trkpt>
<trkpt lat="6.614777" lon="707.0"><ele></ele><time>2014-5-26T18:29:15Z</time></trkpt>
<trkpt lat="6.614553" lon="707.0"><ele></ele><time>2014-5-26T18:29:18Z</time></trkpt>
<trkpt lat="6.614345" lon="707.0"><ele></ele><time>2014-5-26T18:29:21Z</time></trkpt>
<trkpt lat="6.614139" lon="707.0"><ele></ele><time>2014-5-26T18:29:24Z</time></trkpt>
<trkpt lat="6.613955" lon="708.0"><ele></ele><time>2014-5-26T18:29:27Z</time></trkpt>
<trkpt lat="6.613828" lon="707.0"><ele></ele><time>2014-5-26T18:29:30Z</time></trkpt>
<trkpt lat="6.613706" lon="707.0"><ele></ele><time>2014-5-26T18:29:33Z</time></trkpt>
<trkpt lat="6.613602" lon="707.0"><ele></ele><time>2014-5-26T18:29:36Z</time></trkpt>
<trkpt lat="6.613531" lon="707.0"><ele></ele><time>2014-5-26T18:29:39Z</time></trkpt>
<trkpt lat="6.613489" lon="707.0"><ele></ele><time>2014-5-26T18:29:42Z</time></trkpt>
<trkpt lat="6.613386" lon="707.0"><ele></ele><time>2014-5-26T18:29:45Z</time></trkpt>
<trkpt lat="6.613214" lon="709.0"><ele></ele><time>2014-5-26T18:29:48Z</time></trkpt>
<trkpt lat="6.613035" lon="709.0"><ele></ele><time>2014-5-26T18:29:51Z</time></trkpt>
<trkpt lat="6.612839" lon="710.0"><ele></ele><time>2014-5-26T18:29:54Z</time></trkpt>
<trkpt lat="6.612608" lon="710.0"><ele></ele><time>2014-5-26T18:29:57Z</time></trkpt>
<trkpt lat="6.612363" lon="710.0"><ele></ele><time>2014-5-26T18:30:0Z</time></trkpt>
<trkpt lat="6.612101" lon="711.0"><ele></ele><time>2014-5-26T18:30:3Z</time></trkpt>
<trkpt lat="6.611800" lon="712.0"><ele></ele><time>2014-5-26T18:30:6Z</time></trkpt>
<trkpt lat="6.611481" lon="711.0"><ele></ele><time>2014-5-26T18:30:9Z</time></trkpt>
<trkpt lat="6.611152" lon="711.0"><ele></ele><time>2014-5-26T18:30:12Z</time></trkpt>
<trkpt lat="6.610838" lon="711.0"><ele></ele><time>2014-5-26T18:30:15Z</time></trkpt>
<trkpt lat="6.610526" lon="711.0"><ele></ele><time>2014-5-26T18:30:18Z</time></trkpt>
<trkpt lat="6.610204" lon="711.0"><ele></ele><time>2014-5-26T18:30:21Z</time></trkpt>
<trkpt lat="6.609893" lon="710.0"><ele></ele><time>2014-5-26T18:30:24Z</time></trkpt>
<trkpt lat="6.609635" lon="709.0"><ele></ele><time>2014-5-26T18:30:27Z</time></trkpt>
<trkpt lat="6.609428" lon="709.0"><ele></ele><time>2014-5-26T18:30:30Z</time></trkpt>
<trkpt lat="6.609271" lon="709.0"><ele></ele><time>2014-5-26T18:30:33Z</time></trkpt>
<trkpt lat="6.609179" lon="708.0"><ele></ele><time>2014-5-26T18:30:36Z</time></trkpt>
<trkpt lat="6.609155" lon="707.0"><ele></ele><time>2014-5-26T18:30:39Z</time></trkpt>
<trkpt lat="6.609163" lon="707.0"><ele></ele><time>2014-5-26T18:30:42Z</time></trkpt>
<trkpt lat="6.609242" lon="706.0"><ele></ele><time>2014-5-26T18:30:45Z</time></trkpt>
<trkpt lat="6.609328" lon="705.0"><ele></ele><time>2014-5-26T18:30:48Z</time></trkpt>
<trkpt lat="6.609406" lon="704.0"><ele></ele><time>2014-5-26T18:30:51Z</time></trkpt>
<trkpt lat="6.609453" lon="704.0"><ele></ele><time>2014-5-26T18:30:54Z</time></trkpt>
<trkpt lat="6.609482" lon="703.0"><ele></ele><time>2014-5-26T18:30:57Z</time></trkpt>
<trkpt lat="6.609494" lon="703.0"><ele></ele><time>2014-5-26T18:31:0Z</time></trkpt>
<trkpt lat="6.609513" lon="703.0"><ele></ele><time>2014-5-26T18:31:3Z</time></trkpt>
<trkpt lat="6.609532" lon="703.0"><ele></ele><time>2014-5-26T18:31:6Z</time></trkpt>
<trkpt lat="6.609551" lon="702.0"><ele></ele><time>2014-5-26T18:31:9Z</time></trkpt>
<trkpt lat="6.609568" lon="702.0"><ele></ele><time>2014-5-26T18:31:12Z</time></trkpt>
<trkpt lat="6.609586" lon="700.0"><ele></ele><time>2014-5-26T18:31:15Z</time></trkpt>
<trkpt lat="6.609583" lon="700.0"><ele></ele><time>2014-5-26T18:31:18Z</time></trkpt>
<trkpt lat="6.609572" lon="699.0"><ele></ele><time>2014-5-26T18:31:21Z</time></trkpt>
<trkpt lat="6.609567" lon="698.0"><ele></ele><time>2014-5-26T18:31:24Z</time></trkpt>
<trkpt lat="6.609585" lon="697.0"><ele></ele><time>2014-5-26T18:31:27Z</time></trkpt>
<trkpt lat="6.609602" lon="696.0"><ele></ele><time>2014-5-26T18:31:30Z</time></trkpt>
<trkpt lat="6.609617" lon="695.0"><ele></ele><time>2014-5-26T18:31:33Z</time></trkpt>
<trkpt lat="6.609624" lon="693.0"><ele></ele><time>2014-5-26T18:31:36Z</time></trkpt>
<trkpt lat="6.609625" lon="693.0"><ele></ele><time>2014-5-26T18:31:39Z</time></trkpt>
<trkpt lat="6.609623" lon="693.0"><ele></ele><time>2014-5-26T18:31:42Z</time></trkpt>
<trkpt lat="6.609634" lon="691.0"><ele></ele><time>2014-5-26T18:31:45Z</time></trkpt>
<trkpt lat="6.609651" lon="691.0"><ele></ele><time>2014-5-26T18:31:48Z</time></trkpt>
<trkpt lat="6.609489" lon="690.0"><ele></ele><time>2014-5-26T18:31:51Z</time></trkpt>
<trkpt lat="6.609348" lon="689.0"><ele></ele><time>2014-5-26T18:31:54Z</time></trkpt>
<trkpt lat="6.609141" lon="687.0"><ele></ele><time>2014-5-26T18:31:57Z</time></trkpt>
<trkpt lat="6.608850" lon="686.0"><ele></ele><time>2014-5-26T18:32:0Z</time></trkpt>
<trkpt lat="6.608541" lon="685.0"><ele></ele><time>2014-5-26T18:32:3Z</time></trkpt>
<trkpt lat="6.608221" lon="684.0"><ele></ele><time>2014-5-26T18:32:6Z</time></trkpt>
<trkpt lat="6.607899" lon="684.0"><ele></ele><time>2014-5-26T18:32:9Z</time></trkpt>
<trkpt lat="6.607573" lon="682.0"><ele></ele><time>2014-5-26T18:32:12Z</time></trkpt>
<trkpt lat="6.607261" lon="681.0"><ele></ele><time>2014-5-26T18:32:15Z</time></trkpt>
<trkpt lat="6.606945" lon="680.0"><ele></ele><time>2014-5-26T18:32:18Z</time></trkpt>
<trkpt lat="6.606590" lon="679.0"><ele></ele><time>2014-5-26T18:32:21Z</time></trkpt>
<trkpt lat="6.606184" lon="679.0"><ele></ele><time>2014-5-26T18:32:24Z</time></trkpt>
<trkpt lat="6.605748" lon="678.0"><ele></ele><time>2014-5-26T18:32:27Z</time></trkpt>
<trkpt lat="6.605300" lon="677.0"><ele></ele><time>2014-5-26T18:32:30Z</time></trkpt>
<trkpt lat="6.604867" lon="676.0"><ele></ele><time>2014-5-26T18:32:33Z</time></trkpt>
<trkpt lat="6.604462" lon="675.0"><ele></ele><time>2014-5-26T18:32:36Z</time></trkpt>
<trkpt lat="6.604074" lon="674.0"><ele></ele><time>2014-5-26T18:32:39Z</time></trkpt>
<trkpt lat="6.603697" lon="672.0"><ele></ele><time>2014-5-26T18:32:42Z</time></trkpt>
<trkpt lat="6.603392" lon="670.0"><ele></ele><time>2014-5-26T18:32:45Z</time></trkpt>
<trkpt lat="6.603191" lon="669.0"><ele></ele><time>2014-5-26T18:32:48Z</time></trkpt>
<trkpt lat="6.602981" lon="668.0"><ele></ele><time>2014-5-26T18:32:51Z</time></trkpt>
<trkpt lat="6.602778" lon="668.0"><ele></ele><time>2014-5-26T18:32:54Z</time></trkpt>
<trkpt lat="6.602657" lon="668.0"><ele></ele><time>2014-5-26T18:32:57Z</time></trkpt>
<trkpt lat="6.602558" lon="667.0"><ele></ele><time>2014-5-26T18:33:0Z</time></trkpt>
<trkpt lat="6.602473" lon="667.0"><ele></ele><time>2014-5-26T18:33:3Z</time></trkpt>
<trkpt lat="6.602434" lon="667.0"><ele></ele><time>2014-5-26T18:33:6Z</time></trkpt>
<trkpt lat="6.602434" lon="667.0"><ele></ele><time>2014-5-26T18:33:9Z</time></trkpt>
<trkpt lat="6.602514" lon="667.0"><ele></ele><time>2014-5-26T18:33:12Z</time></trkpt>
<trkpt lat="6.602544" lon="666.0"><ele></ele><time>2014-5-26T18:33:15Z</time></trkpt>
<trkpt lat="6.602569" lon="666.0"><ele></ele><time>2014-5-26T18:33:18Z</time></trkpt>
<trkpt lat="6.602545" lon="664.0"><ele></ele><time>2014-5-26T18:33:21Z</time></trkpt>
<trkpt lat="6.602509" lon="663.0"><ele></ele><time>2014-5-26T18:33:24Z</time></trkpt>
<trkpt lat="6.602475" lon="661.0"><ele></ele><time>2014-5-26T18:33:27Z</time></trkpt>
<trkpt lat="6.602415" lon="659.0"><ele></ele><time>2014-5-26T18:33:30Z</time></trkpt>
<trkpt lat="6.602375" lon="658.0"><ele></ele><time>2014-5-26T18:33:33Z</time></trkpt>
<trkpt lat="6.602336" lon="658.0"><ele></ele><time>2014-5-26T18:33:36Z</time></trkpt>
<trkpt lat="6.602365" lon="658.0"><ele></ele><time>2014-5-26T18:33:39Z</time></trkpt>
<trkpt lat="6.602407" lon="658.0"><ele></ele><time>2014-5-26T18:33:42Z</time></trkpt>
<trkpt lat="6.602443" lon="658.0"><ele></ele><time>2014-5-26T18:33:45Z</time></trkpt>
<trkpt lat="6.602493" lon="655.0"><ele></ele><time>2014-5-26T18:33:48Z</time></trkpt>
<trkpt lat="6.602547" lon="653.0"><ele></ele><time>2014-5-26T18:33:51Z</time></trkpt>
<trkpt lat="6.602639" lon="650.0"><ele></ele><time>2014-5-26T18:33:54Z</time></trkpt>
<trkpt lat="6.602694" lon="648.0"><ele></ele><time>2014-5-26T18:33:57Z</time></trkpt>
<trkpt lat="6.602648" lon="647.0"><ele></ele><time>2014-5-26T18:34:0Z</time></trkpt>
<trkpt lat="6.602328" lon="647.0"><ele></ele><time>2014-5-26T18:34:3Z</time></trkpt>
<trkpt lat="6.602174" lon="647.0"><ele></ele><time>2014-5-26T18:34:6Z</time></trkpt>
<trkpt lat="6.602112" lon="647.0"><ele></ele><time>2014-5-26T18:34:9Z</time></trkpt>
<trkpt lat="6.602024" lon="647.0"><ele></ele><time>2014-5-26T18:34:12Z</time></trkpt>
<trkpt lat="6.601926" lon="647.0"><ele></ele><time>2014-5-26T18:34:15Z</time></trkpt>
<trkpt lat="6.601853" lon="648.0"><ele></ele><time>2014-5-26T18:34:18Z</time></trkpt>
<trkpt lat="6.601908" lon="648.0"><ele></ele><time>2014-5-26T18:34:21Z</time></trkpt>
<trkpt lat="6.601988" lon="647.0"><ele></ele><time>2014-5-26T18:34:24Z</time></trkpt>
<trkpt lat="6.601995" lon="647.0"><ele></ele><time>2014-5-26T18:34:27Z</time></trkpt>
<trkpt lat="6.601991" lon="647.0"><ele></ele><time>2014-5-26T18:34:30Z</time></trkpt>
<trkpt lat="6.601940" lon="647.0"><ele></ele><time>2014-5-26T18:34:33Z</time></trkpt>
<trkpt lat="6.601890" lon="646.0"><ele></ele><time>2014-5-26T18:34:36Z</time></trkpt>
<trkpt lat="6.601860" lon="645.0"><ele></ele><time>2014-5-26T18:34:39Z</time></trkpt>
<trkpt lat="6.601810" lon="643.0"><ele></ele><time>2014-5-26T18:34:42Z</time></trkpt>
<trkpt lat="6.601626" lon="642.0"><ele></ele><time>2014-5-26T18:34:45Z</time></trkpt>
<trkpt lat="6.601467" lon="638.0"><ele></ele><time>2014-5-26T18:34:48Z</time></trkpt>
<trkpt lat="6.601320" lon="636.0"><ele></ele><time>2014-5-26T18:34:51Z</time></trkpt>
<trkpt lat="6.601184" lon="633.0"><ele></ele><time>2014-5-26T18:34:54Z</time></trkpt>
<trkpt lat="6.601062" lon="630.0"><ele></ele><time>2014-5-26T18:34:57Z</time></trkpt>
<trkpt lat="6.600951" lon="627.0"><ele></ele><time>2014-5-26T18:35:0Z</time></trkpt>
<trkpt lat="6.600852" lon="626.0"><ele></ele><time>2014-5-26T18:35:3Z</time></trkpt>
<trkpt lat="6.600756" lon="625.0"><ele></ele><time>2014-5-26T18:35:6Z</time></trkpt>
<trkpt lat="6.600649" lon="625.0"><ele></ele><time>2014-5-26T18:35:9Z</time></trkpt>
<trkpt lat="6.600532" lon="625.0"><ele></ele><time>2014-5-26T18:35:12Z</time></trkpt>
<trkpt lat="6.600422" lon="625.0"><ele></ele><time>2014-5-26T18:35:15Z</time></trkpt>
<trkpt lat="6.600302" lon="625.0"><ele></ele><time>2014-5-26T18:35:18Z</time></trkpt>
<trkpt lat="6.600137" lon="625.0"><ele></ele><time>2014-5-26T18:35:21Z</time></trkpt>
<trkpt lat="6.599887" lon="626.0"><ele></ele><time>2014-5-26T18:35:24Z</time></trkpt>
<trkpt lat="6.599598" lon="626.0"><ele></ele><time>2014-5-26T18:35:27Z</time></trkpt>
<trkpt lat="6.599326" lon="626.0"><ele></ele><time>2014-5-26T18:35:30Z</time></trkpt>
<trkpt lat="6.598944" lon="627.0"><ele></ele><time>2014-5-26T18:35:33Z</time></trkpt>
<trkpt lat="6.598672" lon="628.0"><ele></ele><time>2014-5-26T18:35:36Z</time></trkpt>
<trkpt lat="6.598518" lon="630.0"><ele></ele><time>2014-5-26T18:35:39Z</time></trkpt>
<trkpt lat="6.598535" lon="633.0"><ele></ele><time>2014-5-26T18:35:42Z</time></trkpt>
<trkpt lat="6.598264" lon="636.0"><ele></ele><time>2014-5-26T18:35:45Z</time></trkpt>
<trkpt lat="6.598155" lon="639.0"><ele></ele><time>2014-5-26T18:35:48Z</time></trkpt>
<trkpt lat="6.598174" lon="641.0"><ele></ele><time>2014-5-26T18:35:51Z</time></trkpt>
<trkpt lat="6.598306" lon="642.0"><ele></ele><time>2014-5-26T18:35:54Z</time></trkpt>
<trkpt lat="6.598413" lon="642.0"><ele></ele><time>2014-5-26T18:35:57Z</time></trkpt>
<trkpt lat="6.598416" lon="641.0"><ele></ele><time>2014-5-26T18:36:0Z</time></trkpt>
<trkpt lat="6.598446" lon="640.0"><ele></ele><time>2014-5-26T18:36:3Z</time></trkpt>
<trkpt lat="6.598447" lon="636.0"><ele></ele><time>2014-5-26T18:36:6Z</time></trkpt>
<trkpt lat="6.598481" lon="633.0"><ele></ele><time>2014-5-26T18:36:9Z</time></trkpt>
<trkpt lat="6.598303" lon="630.0"><ele></ele><time>2014-5-26T18:36:12Z</time></trkpt>
<trkpt lat="6.598132" lon="627.0"><ele></ele><time>2014-5-26T18:36:15Z</time></trkpt>
<trkpt lat="6.597907" lon="624.0"><ele></ele><time>2014-5-26T18:36:18Z</time></trkpt>
<trkpt lat="6.597558" lon="622.0"><ele></ele><time>2014-5-26T18:36:21Z</time></trkpt>
<trkpt lat="6.597223" lon="620.0"><ele></ele><time>2014-5-26T18:36:24Z</time></trkpt>
<trkpt lat="6.596960" lon="618.0"><ele></ele><time>2014-5-26T18:36:27Z</time></trkpt>
<trkpt lat="6.596675" lon="616.0"><ele></ele><time>2014-5-26T18:36:30Z</time></trkpt>
<trkpt lat="6.596380" lon="615.0"><ele></ele><time>2014-5-26T18:36:33Z</time></trkpt>
<trkpt lat="6.596059" lon="614.0"><ele></ele><time>2014-5-26T18:36:36Z</time></trkpt>
<trkpt lat="6.595725" lon="613.0"><ele></ele><time>2014-5-26T18:36:39Z</time></trkpt>
<trkpt lat="6.595355" lon="612.0"><ele></ele><time>2014-5-26T18:36:42Z</time></trkpt>
<trkpt lat="6.595012" lon="611.0"><ele></ele><time>2014-5-26T18:36:45Z</time></trkpt>
<trkpt lat="6.594674" lon="610.0"><ele></ele><time>2014-5-26T18:36:48Z</time></trkpt>
<trkpt lat="6.594337" lon="609.0"><ele></ele><time>2014-5-26T18:36:51Z</time></trkpt>
<trkpt lat="6.594014" lon="608.0"><ele></ele><time>2014-5-26T18:36:54Z</time></trkpt>
<trkpt lat="6.593729" lon="608.0"><ele></ele><time>2014-5-26T18:36:57Z</time></trkpt>
<trkpt lat="6.593479" lon="607.0"><ele></ele><time>2014-5-26T18:37:0Z</time></trkpt>
<trkpt lat="6.593233" lon="606.0"><ele></ele><time>2014-5-26T18:37:3Z</time></trkpt>
<trkpt lat="6.592975" lon="603.0"><ele></ele><time>2014-5-26T18:37:6Z</time></trkpt>
<trkpt lat="6.592706" lon="602.0"><ele></ele><time>2014-5-26T18:37:9Z</time></trkpt>
<trkpt lat="6.592421" lon="600.0"><ele></ele><time>2014-5-26T18:37:12Z</time></trkpt>
<trkpt lat="6.592126" lon="600.0"><ele></ele><time>2014-5-26T18:37:15Z</time></trkpt>
<trkpt lat="6.591824" lon="600.0"><ele></ele><time>2014-5-26T18:37:18Z</time></trkpt>
<trkpt lat="6.591507" lon="599.0"><ele></ele><time>2014-5-26T18:37:21Z</time></trkpt>
<trkpt lat="6.591180" lon="599.0"><ele></ele><time>2014-5-26T18:37:24Z</time></trkpt>
<trkpt lat="6.590864" lon="598.0"><ele></ele><time>2014-5-26T18:37:27Z</time></trkpt>
<trkpt lat="6.590554" lon="598.0"><ele></ele><time>2014-5-26T18:37:30Z</time></trkpt>
<trkpt lat="6.590263" lon="597.0"><ele></ele><time>2014-5-26T18:37:33Z</time></trkpt>
<trkpt lat="6.589974" lon="596.0"><ele></ele><time>2014-5-26T18:37:36Z</time></trkpt>
<trkpt lat="6.589612" lon="595.0"><ele></ele><time>2014-5-26T18:37:39Z</time></trkpt>
<trkpt lat="6.589332" lon="595.0"><ele></ele><time>2014-5-26T18:37:42Z</time></trkpt>
<trkpt lat="6.589110" lon="595.0"><ele></ele><time>2014-5-26T18:37:45Z</time></trkpt>
<trkpt lat="6.588984" lon="595.0"><ele></ele><time>2014-5-26T18:37:48Z</time></trkpt>
<trkpt lat="6.588859" lon="595.0"><ele></ele><time>2014-5-26T18:37:51Z</time></trkpt>
<trkpt lat="6.588987" lon="594.0"><ele></ele><time>2014-5-26T18:37:54Z</time></trkpt>
<trkpt lat="6.589137" lon="592.0"><ele></ele><time>2014-5-26T18:37:57Z</time></trkpt>
<trkpt lat="6.589316" lon="591.0"><ele></ele><time>2014-5-26T18:38:0Z</time></trkpt>
<trkpt lat="6.589414" lon="591.0"><ele></ele><time>2014-5-26T18:38:3Z</time></trkpt>
<trkpt lat="6.589462" lon="590.0"><ele></ele><time>2014-5-26T18:38:6Z</time></trkpt>
<trkpt lat="6.589378" lon="588.0"><ele></ele><time>2014-5-26T18:38:9Z</time></trkpt>
<trkpt lat="6.589393" lon="587.0"><ele></ele><time>2014-5-26T18:38:12Z</time></trkpt>
<trkpt lat="6.589568" lon="586.0"><ele></ele><time>2014-5-26T18:38:15Z</time></trkpt>
<trkpt lat="6.589722" lon="584.0"><ele></ele><time>2014-5-26T18:38:18Z</time></trkpt>
<trkpt lat="6.589855" lon="581.0"><ele></ele><time>2014-5-26T18:38:21Z</time></trkpt>
<trkpt lat="6.589948" lon="578.0"><ele></ele><time>2014-5-26T18:38:24Z</time></trkpt>
<trkpt lat="6.590047" lon="577.0"><ele></ele><time>2014-5-26T18:38:27Z</time></trkpt>
<trkpt lat="6.590102" lon="576.0"><ele></ele><time>2014-5-26T18:38:30Z</time></trkpt>
<trkpt lat="6.590132" lon="573.0"><ele></ele><time>2014-5-26T18:38:33Z</time></trkpt>
<trkpt lat="6.590128" lon="572.0"><ele></ele><time>2014-5-26T18:38:36Z</time></trkpt>
<trkpt lat="6.590073" lon="570.0"><ele></ele><time>2014-5-26T18:38:39Z</time></trkpt>
<trkpt lat="6.589961" lon="566.0"><ele></ele><time>2014-5-26T18:38:42Z</time></trkpt>
<trkpt lat="6.589636" lon="561.0"><ele></ele><time>2014-5-26T18:38:45Z</time></trkpt>
<trkpt lat="6.589431" lon="555.0"><ele></ele><time>2014-5-26T18:38:48Z</time></trkpt>
<trkpt lat="6.589272" lon="549.0"><ele></ele><time>2014-5-26T18:38:51Z</time></trkpt>
<trkpt lat="6.589136" lon="545.0"><ele></ele><time>2014-5-26T18:38:54Z</time></trkpt>
<trkpt lat="6.588995" lon="541.0"><ele></ele><time>2014-5-26T18:38:57Z</time></trkpt>
<trkpt lat="6.588875" lon="538.0"><ele></ele><time>2014-5-26T18:39:0Z</time></trkpt>
<trkpt lat="6.588717" lon="535.0"><ele></ele><time>2014-5-26T18:39:3Z</time></trkpt>
<trkpt lat="6.588530" lon="533.0"><ele></ele><time>2014-5-26T18:39:6Z</time></trkpt>
<trkpt lat="6.588333" lon="532.0"><ele></ele><time>2014-5-26T18:39:9Z</time></trkpt>
<trkpt lat="6.588127" lon="530.0"><ele></ele><time>2014-5-26T18:39:12Z</time></trkpt>
<trkpt lat="6.587920" lon="529.0"><ele></ele><time>2014-5-26T18:39:15Z</time></trkpt>
<trkpt lat="6.587699" lon="528.0"><ele></ele><time>2014-5-26T18:39:18Z</time></trkpt>
<trkpt lat="6.587470" lon="527.0"><ele></ele><time>2014-5-26T18:39:21Z</time></trkpt>
<trkpt lat="6.587230" lon="525.0"><ele></ele><time>2014-5-26T18:39:24Z</time></trkpt>
<trkpt lat="6.586990" lon="524.0"><ele></ele><time>2014-5-26T18:39:27Z</time></trkpt>
<trkpt lat="6.586754" lon="523.0"><ele></ele><time>2014-5-26T18:39:30Z</time></trkpt>
<trkpt lat="6.586514" lon="523.0"><ele></ele><time>2014-5-26T18:39:33Z</time></trkpt>
<trkpt lat="6.586269" lon="522.0"><ele></ele><time>2014-5-26T18:39:36Z</time></trkpt>
<trkpt lat="6.586016" lon="522.0"><ele></ele><time>2014-5-26T18:39:39Z</time></trkpt>
<trkpt lat="6.585759" lon="521.0"><ele></ele><time>2014-5-26T18:39:42Z</time></trkpt>
<trkpt lat="6.585504" lon="521.0"><ele></ele><time>2014-5-26T18:39:45Z</time></trkpt>
<trkpt lat="6.585248" lon="520.0"><ele></ele><time>2014-5-26T18:39:48Z</time></trkpt>
<trkpt lat="6.585002" lon="520.0"><ele></ele><time>2014-5-26T18:39:51Z</time></trkpt>
<trkpt lat="6.584750" lon="519.0"><ele></ele><time>2014-5-26T18:39:54Z</time></trkpt>
<trkpt lat="6.584491" lon="519.0"><ele></ele><time>2014-5-26T18:39:57Z</time></trkpt>
<trkpt lat="6.584238" lon="518.0"><ele></ele><time>2014-5-26T18:40:0Z</time></trkpt>
<trkpt lat="6.583985" lon="518.0"><ele></ele><time>2014-5-26T18:40:3Z</time></trkpt>
<trkpt lat="6.583731" lon="517.0"><ele></ele><time>2014-5-26T18:40:6Z</time></trkpt>
<trkpt lat="6.583479" lon="517.0"><ele></ele><time>2014-5-26T18:40:9Z</time></trkpt>
<trkpt lat="6.583232" lon="517.0"><ele></ele><time>2014-5-26T18:40:12Z</time></trkpt>
<trkpt lat="6.582984" lon="516.0"><ele></ele><time>2014-5-26T18:40:15Z</time></trkpt>
<trkpt lat="6.582735" lon="516.0"><ele></ele><time>2014-5-26T18:40:18Z</time></trkpt>
<trkpt lat="6.582498" lon="515.0"><ele></ele><time>2014-5-26T18:40:21Z</time></trkpt>
<trkpt lat="6.582266" lon="515.0"><ele></ele><time>2014-5-26T18:40:24Z</time></trkpt>
<trkpt lat="6.582043" lon="514.0"><ele></ele><time>2014-5-26T18:40:27Z</time></trkpt>
<trkpt lat="6.581829" lon="514.0"><ele></ele><time>2014-5-26T18:40:30Z</time></trkpt>
<trkpt lat="6.581626" lon="514.0"><ele></ele><time>2014-5-26T18:40:33Z</time></trkpt>
<trkpt lat="6.581437" lon="514.0"><ele></ele><time>2014-5-26T18:40:36Z</time></trkpt>
<trkpt lat="6.581247" lon="514.0"><ele></ele><time>2014-5-26T18:40:39Z</time></trkpt>
<trkpt lat="6.581082" lon="515.0"><ele></ele><time>2014-5-26T18:40:42Z</time></trkpt>
<trkpt lat="6.580960" lon="515.0"><ele></ele><time>2014-5-26T18:40:45Z</time></trkpt>
<trkpt lat="6.580877" lon="515.0"><ele></ele><time>2014-5-26T18:40:48Z</time></trkpt>
<trkpt lat="6.580877" lon="515.0"><ele></ele><time>2014-5-26T18:40:51Z</time></trkpt>
<trkpt lat="6.580954" lon="511.0"><ele></ele><time>2014-5-26T18:40:54Z</time></trkpt>
<trkpt lat="6.581047" lon="511.0"><ele></ele><time>2014-5-26T18:40:57Z</time></trkpt>
<trkpt lat="6.581160" lon="511.0"><ele></ele><time>2014-5-26T18:41:0Z</time></trkpt>
<trkpt lat="6.581299" lon="511.0"><ele></ele><time>2014-5-26T18:41:3Z</time></trkpt>
<trkpt lat="6.581458" lon="510.0"><ele></ele><time>2014-5-26T18:41:6Z</time></trkpt>
<trkpt lat="6.581558" lon="510.0"><ele></ele><time>2014-5-26T18:41:9Z</time></trkpt>
<trkpt lat="6.581619" lon="510.0"><ele></ele><time>2014-5-26T18:41:12Z</time></trkpt>
<trkpt lat="6.581664" lon="510.0"><ele></ele><time>2014-5-26T18:41:15Z</time></trkpt>
<trkpt lat="6.581702" lon="509.0"><ele></ele><time>2014-5-26T18:41:18Z</time></trkpt>
<trkpt lat="6.581726" lon="509.0"><ele></ele><time>2014-5-26T18:41:21Z</time></trkpt>
<trkpt lat="6.581753" lon="509.0"><ele></ele><time>2014-5-26T18:41:24Z</time></trkpt>
<trkpt lat="6.581802" lon="508.0"><ele></ele><time>2014-5-26T18:41:27Z</time></trkpt>
<trkpt lat="6.581858" lon="508.0"><ele></ele><time>2014-5-26T18:41:30Z</time></trkpt>
<trkpt lat="6.581911" lon="507.0"><ele></ele><time>2014-5-26T18:41:33Z</time></trkpt>
<trkpt lat="6.581941" lon="507.0"><ele></ele><time>2014-5-26T18:41:36Z</time></trkpt>
<trkpt lat="6.581948" lon="507.0"><ele></ele><time>2014-5-26T18:41:39Z</time></trkpt>
<trkpt lat="6.581967" lon="506.0"><ele></ele><time>2014-5-26T18:41:42Z</time></trkpt>
<trkpt lat="6.582017" lon="506.0"><ele></ele><time>2014-5-26T18:41:45Z</time></trkpt>
<trkpt lat="6.582060" lon="506.0"><ele></ele><time>2014-5-26T18:41:48Z</time></trkpt>
<trkpt lat="6.582080" lon="506.0"><ele></ele><time>2014-5-26T18:41:51Z</time></trkpt>
<trkpt lat="6.582076" lon="505.0"><ele></ele><time>2014-5-26T18:41:54Z</time></trkpt>
<trkpt lat="6.582020" lon="506.0"><ele></ele><time>2014-5-26T18:41:57Z</time></trkpt>
<trkpt lat="6.581905" lon="506.0"><ele></ele><time>2014-5-26T18:42:0Z</time></trkpt>
<trkpt lat="6.581767" lon="505.0"><ele></ele><time>2014-5-26T18:42:3Z</time></trkpt>
<trkpt lat="6.581605" lon="505.0"><ele></ele><time>2014-5-26T18:42:6Z</time></trkpt>
<trkpt lat="6.581469" lon="504.0"><ele></ele><time>2014-5-26T18:42:9Z</time></trkpt>
<trkpt lat="6.581409" lon="503.0"><ele></ele><time>2014-5-26T18:42:12Z</time></trkpt>
<trkpt lat="6.581390" lon="502.0"><ele></ele><time>2014-5-26T18:42:15Z</time></trkpt>
<trkpt lat="6.581390" lon="502.0"><ele></ele><time>2014-5-26T18:42:18Z</time></trkpt>
<trkpt lat="6.581397" lon="502.0"><ele></ele><time>2014-5-26T18:42:21Z</time></trkpt>
<trkpt lat="6.581405" lon="502.0"><ele></ele><time>2014-5-26T18:42:24Z</time></trkpt>
<trkpt lat="6.581405" lon="502.0"><ele></ele><time>2014-5-26T18:42:27Z</time></trkpt>
<trkpt lat="6.581491" lon="510.0"><ele></ele><time>2014-5-26T18:42:30Z</time></trkpt>
<trkpt lat="6.581511" lon="510.0"><ele></ele><time>2014-5-26T18:42:33Z</time></trkpt>
<trkpt lat="6.581530" lon="512.0"><ele></ele><time>2014-5-26T18:42:36Z</time></trkpt>
<trkpt lat="6.581546" lon="512.0"><ele></ele><time>2014-5-26T18:42:39Z</time></trkpt>
<trkpt lat="6.581563" lon="512.0"><ele></ele><time>2014-5-26T18:42:42Z</time></trkpt>
<trkpt lat="6.581575" lon="512.0"><ele></ele><time>2014-5-26T18:42:45Z</time></trkpt>
<trkpt lat="6.581581" lon="512.0"><ele></ele><time>2014-5-26T18:42:48Z</time></trkpt>
<trkpt lat="6.581606" lon="511.0"><ele></ele><time>2014-5-26T18:42:51Z</time></trkpt>
<trkpt lat="6.581655" lon="511.0"><ele></ele><time>2014-5-26T18:42:54Z</time></trkpt>
<trkpt lat="6.581712" lon="511.0"><ele></ele><time>2014-5-26T18:42:57Z</time></trkpt>
<trkpt lat="6.581737" lon="511.0"><ele></ele><time>2014-5-26T18:43:0Z</time></trkpt>
<trkpt lat="6.581845" lon="511.0"><ele></ele><time>2014-5-26T18:43:3Z</time></trkpt>
<trkpt lat="6.581935" lon="511.0"><ele></ele><time>2014-5-26T18:43:6Z</time></trkpt>
<trkpt lat="6.582031" lon="510.0"><ele></ele><time>2014-5-26T18:43:9Z</time></trkpt>
<trkpt lat="6.582106" lon="510.0"><ele></ele><time>2014-5-26T18:43:12Z</time></trkpt>
<trkpt lat="6.582152" lon="510.0"><ele></ele><time>2014-5-26T18:43:15Z</time></trkpt>
<trkpt lat="6.582110" lon="509.0"><ele></ele><time>2014-5-26T18:43:18Z</time></trkpt>
<trkpt lat="6.581992" lon="508.0"><ele></ele><time>2014-5-26T18:43:21Z</time></trkpt>
<trkpt lat="6.581944" lon="508.0"><ele></ele><time>2014-5-26T18:43:24Z</time></trkpt>
<trkpt lat="6.581908" lon="507.0"><ele></ele><time>2014-5-26T18:43:27Z</time></trkpt>
<trkpt lat="6.581854" lon="506.0"><ele></ele><time>2014-5-26T18:43:30Z</time></trkpt>
<trkpt lat="6.581795" lon="504.0"><ele></ele><time>2014-5-26T18:43:33Z</time></trkpt>
<trkpt lat="6.581754" lon="503.0"><ele></ele><time>2014-5-26T18:43:36Z</time></trkpt>
<trkpt lat="6.581715" lon="502.0"><ele></ele><time>2014-5-26T18:43:39Z</time></trkpt>
<trkpt lat="6.581643" lon="502.0"><ele></ele><time>2014-5-26T18:43:42Z</time></trkpt>
<trkpt lat="6.581459" lon="501.0"><ele></ele><time>2014-5-26T18:43:45Z</time></trkpt>
<trkpt lat="6.581254" lon="500.0"><ele></ele><time>2014-5-26T18:43:48Z</time></trkpt>
<trkpt lat="6.581093" lon="498.0"><ele></ele><time>2014-5-26T18:43:51Z</time></trkpt>
<trkpt lat="6.580975" lon="498.0"><ele></ele><time>2014-5-26T18:43:54Z</time></trkpt>
<trkpt lat="6.580876" lon="497.0"><ele></ele><time>2014-5-26T18:43:57Z</time></trkpt>
<trkpt lat="6.580782" lon="496.0"><ele></ele><time>2014-5-26T18:44:0Z</time></trkpt>
<trkpt lat="6.580664" lon="496.0"><ele></ele><time>2014-5-26T18:44:3Z</time></trkpt>
<trkpt lat="6.580526" lon="496.0"><ele></ele><time>2014-5-26T18:44:6Z</time></trkpt>
<trkpt lat="6.580387" lon="495.0"><ele></ele><time>2014-5-26T18:44:9Z</time></trkpt>
<trkpt lat="6.580252" lon="496.0"><ele></ele><time>2014-5-26T18:44:12Z</time></trkpt>
<trkpt lat="6.580113" lon="496.0"><ele></ele><time>2014-5-26T18:44:15Z</time></trkpt>
<trkpt lat="6.579979" lon="496.0"><ele></ele><time>2014-5-26T18:44:18Z</time></trkpt>
<trkpt lat="6.579843" lon="496.0"><ele></ele><time>2014-5-26T18:44:21Z</time></trkpt>
<trkpt lat="6.579755" lon="496.0"><ele></ele><time>2014-5-26T18:44:24Z</time></trkpt>
<trkpt lat="6.579735" lon="496.0"><ele></ele><time>2014-5-26T18:44:27Z</time></trkpt>
<trkpt lat="6.579709" lon="496.0"><ele></ele><time>2014-5-26T18:44:30Z</time></trkpt>
<trkpt lat="6.579671" lon="496.0"><ele></ele><time>2014-5-26T18:44:33Z</time></trkpt>
<trkpt lat="6.579632" lon="496.0"><ele></ele><time>2014-5-26T18:44:36Z</time></trkpt>
<trkpt lat="6.579599" lon="496.0"><ele></ele><time>2014-5-26T18:44:39Z</time></trkpt>
<trkpt lat="6.579561" lon="496.0"><ele></ele><time>2014-5-26T18:44:42Z</time></trkpt>
<trkpt lat="6.579541" lon="495.0"><ele></ele><time>2014-5-26T18:44:45Z</time></trkpt>
<trkpt lat="6.579518" lon="495.0"><ele></ele><time>2014-5-26T18:44:48Z</time></trkpt>
<trkpt lat="6.579494" lon="494.0"><ele></ele><time>2014-5-26T18:44:51Z</time></trkpt>
<trkpt lat="6.579492" lon="494.0"><ele></ele><time>2014-5-26T18:44:54Z</time></trkpt>
<trkpt lat="6.579487" lon="494.0"><ele></ele><time>2014-5-26T18:44:57Z</time></trkpt>
<trkpt lat="6.579481" lon="494.0"><ele></ele><time>2014-5-26T18:45:0Z</time></trkpt>
<trkpt lat="6.579466" lon="494.0"><ele></ele><time>2014-5-26T18:45:3Z</time></trkpt>
<trkpt lat="6.579463" lon="493.0"><ele></ele><time>2014-5-26T18:45:6Z</time></trkpt>
<trkpt lat="6.579474" lon="493.0"><ele></ele><time>2014-5-26T18:45:9Z</time></trkpt>
<trkpt lat="6.579496" lon="492.0"><ele></ele><time>2014-5-26T18:45:12Z</time></trkpt>
<trkpt lat="6.579528" lon="492.0"><ele></ele><time>2014-5-26T18:45:15Z</time></trkpt>
<trkpt lat="6.579565" lon="492.0"><ele></ele><time>2014-5-26T18:45:18Z</time></trkpt>
<trkpt lat="6.579600" lon="491.0"><ele></ele><time>2014-5-26T18:45:21Z</time></trkpt>
<trkpt lat="6.579622" lon="491.0"><ele></ele><time>2014-5-26T18:45:24Z</time></trkpt>
<trkpt lat="6.579643" lon="490.0"><ele></ele><time>2014-5-26T18:45:27Z</time></trkpt>
<trkpt lat="6.579656" lon="490.0"><ele></ele><time>2014-5-26T18:45:30Z</time></trkpt>
<trkpt lat="6.579656" lon="490.0"><ele></ele><time>2014-5-26T18:45:33Z</time></trkpt>
<trkpt lat="6.579707" lon="487.0"><ele></ele><time>2014-5-26T18:45:36Z</time></trkpt>
<trkpt lat="6.579874" lon="488.0"><ele></ele><time>2014-5-26T18:45:39Z</time></trkpt>
<trkpt lat="6.580100" lon="487.0"><ele></ele><time>2014-5-26T18:45:42Z</time></trkpt>
<trkpt lat="6.580304" lon="487.0"><ele></ele><time>2014-5-26T18:45:45Z</time></trkpt>
<trkpt lat="6.580511" lon="486.0"><ele></ele><time>2014-5-26T18:45:48Z</time></trkpt>
<trkpt lat="6.580721" lon="486.0"><ele></ele><time>2014-5-26T18:45:51Z</time></trkpt>
<trkpt lat="6.580941" lon="486.0"><ele></ele><time>2014-5-26T18:45:54Z</time></trkpt>
<trkpt lat="6.581161" lon="485.0"><ele></ele><time>2014-5-26T18:45:57Z</time></trkpt>
<trkpt lat="6.581389" lon="485.0"><ele></ele><time>2014-5-26T18:46:0Z</time></trkpt>
<trkpt lat="6.581618" lon="485.0"><ele></ele><time>2014-5-26T18:46:3Z</time></trkpt>
<trkpt lat="6.581844" lon="486.0"><ele></ele><time>2014-5-26T18:46:6Z</time></trkpt>
<trkpt lat="6.582069" lon="486.0"><ele></ele><time>2014-5-26T18:46:9Z</time></trkpt>
<trkpt lat="6.582234" lon="486.0"><ele></ele><time>2014-5-26T18:46:12Z</time></trkpt>
<trkpt lat="6.582198" lon="486.0"><ele></ele><time>2014-5-26T18:46:15Z</time></trkpt>
<trkpt lat="6.582058" lon="486.0"><ele></ele><time>2014-5-26T18:46:18Z</time></trkpt>
<trkpt lat="6.581870" lon="486.0"><ele></ele><time>2014-5-26T18:46:21Z</time></trkpt>
<trkpt lat="6.581661" lon="487.0"><ele></ele><time>2014-5-26T18:46:24Z</time></trkpt>
<trkpt lat="6.581469" lon="487.0"><ele></ele><time>2014-5-26T18:46:27Z</time></trkpt>
<trkpt lat="6.581060" lon="487.0"><ele></ele><time>2014-5-26T18:46:30Z</time></trkpt>
<trkpt lat="6.580888" lon="487.0"><ele></ele><time>2014-5-26T18:46:33Z</time></trkpt>
<trkpt lat="6.580906" lon="485.0"><ele></ele><time>2014-5-26T18:46:36Z</time></trkpt>
<trkpt lat="6.580872" lon="483.0"><ele></ele><time>2014-5-26T18:46:39Z</time></trkpt>
<trkpt lat="6.580875" lon="481.0"><ele></ele><time>2014-5-26T18:46:42Z</time></trkpt>
<trkpt lat="6.580870" lon="478.0"><ele></ele><time>2014-5-26T18:46:45Z</time></trkpt>
<trkpt lat="6.580850" lon="477.0"><ele></ele><time>2014-5-26T18:46:48Z</time></trkpt>
<trkpt lat="6.580825" lon="475.0"><ele></ele><time>2014-5-26T18:46:51Z</time></trkpt>
<trkpt lat="6.580816" lon="475.0"><ele></ele><time>2014-5-26T18:46:54Z</time></trkpt>
<trkpt lat="6.580841" lon="474.0"><ele></ele><time>2014-5-26T18:46:57Z</time></trkpt>
<trkpt lat="6.580854" lon="472.0"><ele></ele><time>2014-5-26T18:47:0Z</time></trkpt>
<trkpt lat="6.580842" lon="471.0"><ele></ele><time>2014-5-26T18:47:3Z</time></trkpt>
<trkpt lat="6.580759" lon="471.0"><ele></ele><time>2014-5-26T18:47:6Z</time></trkpt>
<trkpt lat="6.580654" lon="470.0"><ele></ele><time>2014-5-26T18:47:9Z</time></trkpt>
<trkpt lat="6.580592" lon="470.0"><ele></ele><time>2014-5-26T18:47:12Z</time></trkpt>
<trkpt lat="6.580568" lon="469.0"><ele></ele><time>2014-5-26T18:47:15Z</time></trkpt>
<trkpt lat="6.580551" lon="469.0"><ele></ele><time>2014-5-26T18:47:18Z</time></trkpt>
<trkpt lat="6.580532" lon="469.0"><ele></ele><time>2014-5-26T18:47:21Z</time></trkpt>
<trkpt lat="6.580508" lon="468.0"><ele></ele><time>2014-5-26T18:47:24Z</time></trkpt>
<trkpt lat="6.580480" lon="469.0"><ele></ele><time>2014-5-26T18:47:27Z</time></trkpt>
<trkpt lat="6.580430" lon="469.0"><ele></ele><time>2014-5-26T18:47:30Z</time></trkpt>
<trkpt lat="6.580391" lon="469.0"><ele></ele><time>2014-5-26T18:47:33Z</time></trkpt>
<trkpt lat="6.580367" lon="469.0"><ele></ele><time>2014-5-26T18:47:36Z</time></trkpt>
<trkpt lat="6.580256" lon="470.0"><ele></ele><time>2014-5-26T18:47:39Z</time></trkpt>
<trkpt lat="6.580134" lon="470.0"><ele></ele><time>2014-5-26T18:47:42Z</time></trkpt>
<trkpt lat="6.580015" lon="470.0"><ele></ele><time>2014-5-26T18:47:45Z</time></trkpt>
<trkpt lat="6.579863" lon="469.0"><ele></ele><time>2014-5-26T18:47:48Z</time></trkpt>
<trkpt lat="6.579719" lon="468.0"><ele></ele><time>2014-5-26T18:47:51Z</time></trkpt>
<trkpt lat="6.579588" lon="466.0"><ele></ele><time>2014-5-26T18:47:54Z</time></trkpt>
<trkpt lat="6.579539" lon="464.0"><ele></ele><time>2014-5-26T18:47:57Z</time></trkpt>
</trkseg></trk></gpx>